Darstellungsparameter: Aktuell verwendete Einstellungen:
Skalierung der Graphiken ... ?
xyx+y,   Skalierungsfaktor:      Skalierung: Modus: x, Faktor: 1
Darstellungszeitraum ... ?
Vom - - bis: - -   Zeitraum: 27.10.2008 - 16.11.2008
Min/Max/Avg-Anzeige ... ?
Zeige MMA aktuell
Zeige MMA Monat
Zeige MMA alles
Zeige --A aktuell
Zeige --A Monat
Zeige --A alles
Keine MMA-Anzeige
MMA:
Average (ber die Originaldaten)
MMA-Basis: 17.04.2019 - 19.05.2019
Quicknavigation für Darstellung... ?
Tage:      1T, 2T, 3T, 5T -1T -2T -3T -5T +1T +2T +3T +5T
Wochen: 1W, 2W, 3W -1W -2W -3W +1W +2W +3W
Monate: 1M, 3M, 6M -1M -3M -6M +1M +3M +6M
Jahre:    1J, 3J, 5J, 10J -1J -3J -5J -10J +1J +3J +5J +10J
Nutze für die Darstellung ... ?
Originaldaten oder Mittelwerte auf ...
Stundenbasis Tagesbasis Wochenbasis
Monatsbasis Jahresbasis      Datenbasis: Original-Daten
Darstellen als:
Statistik (Auto) Statistik J:M      Darstellung:
Zur Graphik,    zurück zur Übersicht aller Sensoren.
 
Tabellarische Datenbersicht: ?
 
Sensor: Nr:Datum:Temp:Abs-Feuchte:Windchill:Wind:
Aussen-T/F 1 27-10-2008 00:11:05 13.2 C 6.89 g/m*3 13.2 C 0 km/h
2 27-10-2008 00:36:05 13.2 C 7 g/m*3 13.2 C 0 km/h
3 27-10-2008 01:01:05 12 C 7.89 g/m*3 12 C 0 km/h
4 27-10-2008 01:26:05 11.4 C 8.31 g/m*3 11.4 C 0 km/h
5 27-10-2008 01:51:05 11 C 8.41 g/m*3 11 C 0 km/h
6 27-10-2008 02:16:05 11 C 8.51 g/m*3 11 C 0 km/h
7 27-10-2008 02:41:05 11.2 C 8.41 g/m*3 11.2 C 0 km/h
8 27-10-2008 03:06:05 11.1 C 8.36 g/m*3 11.1 C 0 km/h
9 27-10-2008 03:31:06 10.9 C 8.55 g/m*3 10.9 C 0 km/h
10 27-10-2008 03:56:06 10.9 C 8.65 g/m*3 10.9 C 0 km/h
11 27-10-2008 04:21:06 10.7 C 8.74 g/m*3 10.7 C 0 km/h
12 27-10-2008 04:46:06 10.6 C 8.78 g/m*3 10.6 C 0 km/h
13 27-10-2008 05:11:06 10.5 C 8.83 g/m*3 10.5 C 0 km/h
14 27-10-2008 05:36:06 10.5 C 8.92 g/m*3 10.5 C 0 km/h
15 27-10-2008 06:01:06 10.4 C 8.87 g/m*3 10.4 C 0 km/h
16 27-10-2008 06:26:06 10.3 C 8.81 g/m*3 10.3 C 0 km/h
17 27-10-2008 06:51:06 10.2 C 8.76 g/m*3 10.2 C 0 km/h
18 27-10-2008 07:16:06 10.2 C 8.85 g/m*3 10.2 C 0 km/h
19 27-10-2008 07:41:06 10.1 C 8.79 g/m*3 10.1 C 0 km/h
20 27-10-2008 08:06:06 10.1 C 8.79 g/m*3 10.1 C 0 km/h
21 27-10-2008 08:31:06 10.2 C 8.95 g/m*3 10.2 C 0 km/h
22 27-10-2008 08:56:06 10.3 C 9 g/m*3 10.3 C 0 km/h
23 27-10-2008 09:21:06 10.4 C 9.06 g/m*3 10.4 C 0 km/h
24 27-10-2008 09:46:06 10.4 C 9.06 g/m*3 10.4 C 0 km/h
25 27-10-2008 10:11:06 10.4 C 9.06 g/m*3 10.4 C 0 km/h
Sensor: Nr:Datum:Temp:Abs-Feuchte:Windchill:Wind:
Aussen-T/F 26 27-10-2008 10:36:06 10.6 C 9.17 g/m*3 10.6 C 0 km/h
27 27-10-2008 11:01:06 9.5 C 8.56 g/m*3 9.5 C 0 km/h
28 27-10-2008 11:26:06 9.5 C 8.56 g/m*3 9.5 C 0 km/h
29 27-10-2008 11:51:07 10.1 C 8.79 g/m*3 10.1 C 0 km/h
30 27-10-2008 12:16:07 10.2 C 8.85 g/m*3 10.2 C 0 km/h
31 27-10-2008 12:41:07 10.5 C 9.02 g/m*3 10.5 C 0 km/h
32 27-10-2008 13:06:07 10.4 C 8.67 g/m*3 10.4 C 0 km/h
33 27-10-2008 13:31:07 10.4 C 8.58 g/m*3 10.4 C 0 km/h
34 27-10-2008 13:56:07 10.7 C 8.15 g/m*3 10.7 C 0 km/h
35 27-10-2008 14:21:07 11.9 C 8.37 g/m*3 11.9 C 0 km/h
36 27-10-2008 14:46:07 12 C 7.99 g/m*3 12 C 0 km/h
37 27-10-2008 15:11:07 14 C 8.81 g/m*3 14 C 0 km/h
38 27-10-2008 15:36:07 13.5 C 7.49 g/m*3 13.5 C 0 km/h
39 27-10-2008 16:01:07 13.4 C 7.32 g/m*3 13.4 C 0 km/h
40 27-10-2008 16:26:07 11.5 C 7.13 g/m*3 11.5 C 0 km/h
41 27-10-2008 16:51:07 11.2 C 7.3 g/m*3 11.2 C 0 km/h
42 27-10-2008 17:16:07 10.7 C 7.46 g/m*3 10.7 C 0 km/h
43 27-10-2008 17:41:07 10.2 C 6.66 g/m*3 10.2 C 0 km/h
44 27-10-2008 18:06:07 9.8 C 6.77 g/m*3 9.8 C 0 km/h
45 27-10-2008 18:31:07 9.9 C 6.82 g/m*3 9.9 C 0 km/h
46 27-10-2008 18:56:07 9.5 C 6.92 g/m*3 9.5 C 0 km/h
47 27-10-2008 19:21:07 8.8 C 6.88 g/m*3 8.8 C 0 km/h
48 27-10-2008 19:46:07 9.1 C 7.01 g/m*3 9.1 C 0 km/h
49 27-10-2008 20:11:08 8.8 C 7.05 g/m*3 8.8 C 0 km/h
50 27-10-2008 20:36:08 8.4 C 6.87 g/m*3 8.4 C 0 km/h
Sensor: Nr:Datum:Temp:Abs-Feuchte:Windchill:Wind:
Aussen-T/F 51 27-10-2008 21:01:08 8.1 C 6.82 g/m*3 8.1 C 0 km/h
52 27-10-2008 21:26:08 7.9 C 6.82 g/m*3 7.9 C 0 km/h
53 27-10-2008 21:51:08 7.1 C 6.55 g/m*3 7.1 C 0 km/h
54 27-10-2008 22:16:08 7.3 C 6.79 g/m*3 7.3 C 0 km/h
55 27-10-2008 22:41:08 7.2 C 6.67 g/m*3 7.2 C 0 km/h
56 27-10-2008 23:06:08 6.8 C 6.65 g/m*3 6.8 C 0 km/h
57 27-10-2008 23:31:08 6.3 C 6.51 g/m*3 6.3 C 0 km/h
58 27-10-2008 23:56:08 6.1 C 6.5 g/m*3 6.1 C 0 km/h
59 28-10-2008 00:21:08 5.8 C 6.45 g/m*3 5.8 C 0 km/h
60 28-10-2008 00:46:08 6.1 C 6.58 g/m*3 6.1 C 0 km/h
61 28-10-2008 01:11:08 6.1 C 6.65 g/m*3 6.1 C 0 km/h
62 28-10-2008 01:36:08 5.8 C 6.52 g/m*3 5.8 C 0 km/h
63 28-10-2008 02:01:08 6 C 6.6 g/m*3 6 C 0 km/h
64 28-10-2008 02:26:08 6.3 C 6.81 g/m*3 6.3 C 0 km/h
65 28-10-2008 02:51:08 6.4 C 6.78 g/m*3 6.4 C 0 km/h
66 28-10-2008 03:16:08 6.4 C 6.78 g/m*3 6.4 C 0 km/h
67 28-10-2008 03:41:08 6.6 C 6.87 g/m*3 6.6 C 0 km/h
68 28-10-2008 04:06:08 6.5 C 6.82 g/m*3 6.5 C 0 km/h
69 28-10-2008 04:31:08 6.5 C 6.82 g/m*3 6.5 C 0 km/h
70 28-10-2008 04:56:09 6.5 C 6.9 g/m*3 6.5 C 0 km/h
71 28-10-2008 05:21:09 6.5 C 6.9 g/m*3 6.5 C 0 km/h
72 28-10-2008 05:46:09 6.4 C 6.93 g/m*3 6.4 C 0 km/h
73 28-10-2008 06:11:09 6.3 C 6.88 g/m*3 6.3 C 0 km/h
74 28-10-2008 06:36:09 6.5 C 6.97 g/m*3 6.5 C 0 km/h
75 28-10-2008 07:01:09 6.2 C 6.84 g/m*3 6.2 C 0 km/h
Sensor: Nr:Datum:Temp:Abs-Feuchte:Windchill:Wind:
Aussen-T/F 76 28-10-2008 07:26:09 6 C 6.75 g/m*3 6 C 0 km/h
77 28-10-2008 07:51:09 6 C 6.75 g/m*3 6 C 0 km/h
78 28-10-2008 08:16:09 6.2 C 6.91 g/m*3 6.2 C 0 km/h
79 28-10-2008 08:41:09 6.6 C 7.1 g/m*3 6.6 C 0 km/h
80 28-10-2008 09:06:09 7 C 7.21 g/m*3 7 C 0 km/h
81 28-10-2008 09:31:09 7.3 C 7.19 g/m*3 7.3 C 0 km/h
82 28-10-2008 09:56:09 7.8 C 6.94 g/m*3 7.8 C 0 km/h
83 28-10-2008 10:21:09 7.9 C 6.65 g/m*3 7.9 C 0 km/h
84 28-10-2008 10:46:09 8.5 C 6.92 g/m*3 8.5 C 0 km/h
85 28-10-2008 11:11:09 9.2 C 6.88 g/m*3 9.2 C 0 km/h
86 28-10-2008 11:36:09 10.1 C 6.71 g/m*3 10.1 C 0 km/h
87 28-10-2008 12:01:09 10.5 C 6.3 g/m*3 10.5 C 0 km/h
88 28-10-2008 12:26:09 10.5 C 5.82 g/m*3 10.5 C 0 km/h
89 28-10-2008 12:51:09 10.3 C 4.98 g/m*3 10.3 C 0 km/h
90 28-10-2008 13:16:10 10.6 C 5.37 g/m*3 10.6 C 0 km/h
91 28-10-2008 13:41:10 10.5 C 5.43 g/m*3 10.5 C 0 km/h
92 28-10-2008 14:06:10 10.1 C 5.3 g/m*3 10.1 C 0 km/h
93 28-10-2008 14:31:10 10.2 C 5.33 g/m*3 10.2 C 0 km/h
94 28-10-2008 14:56:10 10.4 C 5.4 g/m*3 10.4 C 0 km/h
95 28-10-2008 15:21:10 10.2 C 5.23 g/m*3 10.2 C 0 km/h
96 28-10-2008 15:46:10 9.8 C 5.38 g/m*3 9.8 C 0 km/h
97 28-10-2008 16:11:10 9 C 5.73 g/m*3 9 C 0 km/h
98 28-10-2008 16:36:10 8.4 C 6.19 g/m*3 8.4 C 0 km/h
99 28-10-2008 17:01:10 7.8 C 6.12 g/m*3 7.8 C 0 km/h
100 28-10-2008 17:26:10 7 C 5.97 g/m*3 7 C 0 km/h
Sensor: Nr:Datum:Temp:Abs-Feuchte:Windchill:Wind:
Aussen-T/F 101 28-10-2008 17:51:10 6.5 C 5.92 g/m*3 6.5 C 0 km/h
102 28-10-2008 18:16:10 6.2 C 5.96 g/m*3 6.2 C 0 km/h
103 28-10-2008 18:41:10 5.5 C 5.76 g/m*3 5.5 C 0 km/h
104 28-10-2008 19:06:10 5.4 C 5.72 g/m*3 5.4 C 0 km/h
105 28-10-2008 19:31:10 5.2 C 5.78 g/m*3 5.2 C 0 km/h
106 28-10-2008 19:56:10 5 C 5.71 g/m*3 5 C 0 km/h
107 28-10-2008 20:21:10 4.9 C 5.81 g/m*3 4.9 C 0 km/h
108 28-10-2008 20:46:10 4.7 C 5.73 g/m*3 4.7 C 0 km/h
109 28-10-2008 21:11:10 4.4 C 5.62 g/m*3 4.4 C 0 km/h
110 28-10-2008 21:36:10 4.2 C 5.61 g/m*3 4.2 C 0 km/h
111 28-10-2008 22:01:11 3.9 C 5.49 g/m*3 3.9 C 0 km/h
112 28-10-2008 22:26:11 3.8 C 5.58 g/m*3 3.8 C 0 km/h
113 28-10-2008 22:51:11 3.6 C 5.51 g/m*3 3.6 C 0 km/h
114 28-10-2008 23:16:11 3.4 C 5.44 g/m*3 3.4 C 0 km/h
115 28-10-2008 23:41:11 3.2 C 5.36 g/m*3 3.2 C 0 km/h
116 29-10-2008 00:06:11 3.2 C 5.42 g/m*3 3.2 C 0 km/h
117 29-10-2008 00:31:11 3.1 C 5.39 g/m*3 3.1 C 0 km/h
118 29-10-2008 00:56:11 2.8 C 5.34 g/m*3 2.8 C 0 km/h
119 29-10-2008 01:21:11 2.8 C 5.4 g/m*3 2.8 C 0 km/h
120 29-10-2008 01:46:11 2.9 C 5.43 g/m*3 2.9 C 0 km/h
121 29-10-2008 02:11:11 3 C 5.47 g/m*3 3 C 0 km/h
122 29-10-2008 02:36:11 2.9 C 5.49 g/m*3 2.9 C 0 km/h
123 29-10-2008 03:01:11 3.1 C 5.51 g/m*3 3.1 C 0 km/h
124 29-10-2008 03:26:11 3.4 C 5.68 g/m*3 3.4 C 0 km/h
125 29-10-2008 03:51:11 3.6 C 5.76 g/m*3 3.6 C 0 km/h
Sensor: Nr:Datum:Temp:Abs-Feuchte:Windchill:Wind:
Aussen-T/F 126 29-10-2008 04:16:11 3.6 C 5.69 g/m*3 3.6 C 0 km/h
127 29-10-2008 04:41:11 3.4 C 5.62 g/m*3 3.4 C 0 km/h
128 29-10-2008 05:06:11 3.5 C 5.66 g/m*3 3.5 C 0 km/h
129 29-10-2008 05:31:11 3.7 C 5.73 g/m*3 3.7 C 0 km/h
130 29-10-2008 05:56:11 3.7 C 5.73 g/m*3 3.7 C 0 km/h
131 29-10-2008 06:21:11 3.7 C 5.73 g/m*3 3.7 C 0 km/h
132 29-10-2008 06:46:12 3.7 C 5.67 g/m*3 3.7 C 0 km/h
133 29-10-2008 07:11:12 3.7 C 5.67 g/m*3 3.7 C 0 km/h
134 29-10-2008 07:36:12 3.6 C 5.63 g/m*3 3.6 C 0 km/h
135 29-10-2008 08:01:12 3.6 C 5.63 g/m*3 3.6 C 0 km/h
136 29-10-2008 08:26:12 3.9 C 5.75 g/m*3 3.9 C 0 km/h
137 29-10-2008 08:51:12 3.9 C 5.68 g/m*3 3.9 C 0 km/h
138 29-10-2008 09:16:12 4.4 C 5.75 g/m*3 4.4 C 0 km/h
139 29-10-2008 09:41:12 4.6 C 5.69 g/m*3 4.6 C 0 km/h
140 29-10-2008 10:06:12 5 C 5.57 g/m*3 5 C 0 km/h
141 29-10-2008 10:31:12 5.6 C 5.66 g/m*3 5.6 C 0 km/h
142 29-10-2008 10:56:12 5.6 C 5.59 g/m*3 5.6 C 0 km/h
143 29-10-2008 11:21:12 6.5 C 5.77 g/m*3 6.5 C 0 km/h
144 29-10-2008 11:46:12 7.2 C 5.65 g/m*3 7.2 C 0 km/h
145 29-10-2008 12:11:12 7.1 C 5.54 g/m*3 7.1 C 0 km/h
146 29-10-2008 12:36:12 7.5 C 5.76 g/m*3 7.5 C 0 km/h
147 29-10-2008 13:01:12 8 C 5.37 g/m*3 8 C 0 km/h
148 29-10-2008 13:26:12 8.4 C 5.51 g/m*3 8.4 C 0 km/h
149 29-10-2008 13:51:12 9.2 C 5.63 g/m*3 9.2 C 0 km/h
150 29-10-2008 14:16:12 9.1 C 5.41 g/m*3 9.1 C 0 km/h
Sensor: Nr:Datum:Temp:Abs-Feuchte:Windchill:Wind:
Aussen-T/F 151 29-10-2008 14:41:12 10.2 C 5.42 g/m*3 10.2 C 0 km/h
152 29-10-2008 15:06:13 10.7 C 5.11 g/m*3 10.7 C 0 km/h
153 29-10-2008 15:31:13 9.8 C 5.1 g/m*3 9.8 C 0 km/h
154 29-10-2008 15:56:13 9.4 C 5.34 g/m*3 9.4 C 0 km/h
155 29-10-2008 16:21:13 8.4 C 5.34 g/m*3 8.4 C 0 km/h
156 29-10-2008 16:46:13 7.9 C 5.5 g/m*3 7.9 C 0 km/h
157 29-10-2008 17:11:13 7.1 C 5.38 g/m*3 7.1 C 0 km/h
158 29-10-2008 17:36:13 6.7 C 5.47 g/m*3 6.7 C 0 km/h
159 29-10-2008 18:01:13 6.4 C 5.59 g/m*3 6.4 C 0 km/h
160 29-10-2008 18:26:13 6.2 C 5.52 g/m*3 6.2 C 0 km/h
161 29-10-2008 18:51:13 6 C 5.52 g/m*3 6 C 0 km/h
162 29-10-2008 19:16:13 5.9 C 5.62 g/m*3 5.9 C 0 km/h
163 29-10-2008 19:41:13 5.9 C 5.7 g/m*3 5.9 C 0 km/h
164 29-10-2008 20:06:13 5.8 C 5.66 g/m*3 5.8 C 0 km/h
165 29-10-2008 20:31:13 5.4 C 5.58 g/m*3 5.4 C 0 km/h
166 29-10-2008 20:56:13 5.1 C 5.54 g/m*3 5.1 C 0 km/h
167 29-10-2008 21:21:13 5.3 C 5.54 g/m*3 5.3 C 0 km/h
168 29-10-2008 21:46:13 5.1 C 5.47 g/m*3 5.1 C 0 km/h
169 29-10-2008 22:11:13 5.2 C 5.51 g/m*3 5.2 C 0 km/h
170 29-10-2008 22:36:13 5.2 C 5.58 g/m*3 5.2 C 0 km/h
171 29-10-2008 23:01:13 5.2 C 5.65 g/m*3 5.2 C 0 km/h
172 29-10-2008 23:26:13 5.2 C 5.65 g/m*3 5.2 C 0 km/h
173 29-10-2008 23:51:14 5 C 5.64 g/m*3 5 C 0 km/h
174 30-10-2008 00:16:14 5 C 5.71 g/m*3 5 C 0 km/h
175 30-10-2008 00:41:14 4.9 C 5.74 g/m*3 4.9 C 0 km/h
Sensor: Nr:Datum:Temp:Abs-Feuchte:Windchill:Wind:
Aussen-T/F 176 30-10-2008 01:06:14 4.7 C 5.73 g/m*3 4.7 C 0 km/h
177 30-10-2008 01:31:14 4.8 C 5.83 g/m*3 4.8 C 0 km/h
178 30-10-2008 01:56:14 4.8 C 5.83 g/m*3 4.8 C 0 km/h
179 30-10-2008 02:21:14 5 C 5.84 g/m*3 5 C 0 km/h
180 30-10-2008 02:46:14 4.8 C 5.83 g/m*3 4.8 C 0 km/h
181 30-10-2008 03:11:14 4.8 C 5.9 g/m*3 4.8 C 0 km/h
182 30-10-2008 03:36:14 4.7 C 5.93 g/m*3 4.7 C 0 km/h
183 30-10-2008 04:01:14 4.7 C 6 g/m*3 4.7 C 0 km/h
184 30-10-2008 04:26:14 4.5 C 5.98 g/m*3 4.5 C 0 km/h
185 30-10-2008 04:51:14 4.5 C 5.98 g/m*3 4.5 C 0 km/h
186 30-10-2008 05:16:14 4.5 C 6.05 g/m*3 4.5 C 0 km/h
187 30-10-2008 05:41:14 4.5 C 6.05 g/m*3 4.5 C 0 km/h
188 30-10-2008 06:06:14 4.2 C 5.93 g/m*3 4.2 C 0 km/h
189 30-10-2008 06:31:14 4.2 C 5.93 g/m*3 4.2 C 0 km/h
190 30-10-2008 06:56:14 4.1 C 5.89 g/m*3 4.1 C 0 km/h
191 30-10-2008 07:21:14 3.9 C 5.87 g/m*3 3.9 C 0 km/h
192 30-10-2008 07:46:14 3.9 C 5.94 g/m*3 3.9 C 0 km/h
193 30-10-2008 08:11:15 4 C 5.98 g/m*3 4 C 0 km/h
194 30-10-2008 08:36:15 4.2 C 6.06 g/m*3 4.2 C 0 km/h
195 30-10-2008 09:01:15 4.6 C 6.22 g/m*3 4.6 C 0 km/h
196 30-10-2008 09:26:15 4.8 C 6.3 g/m*3 4.8 C 0 km/h
197 30-10-2008 09:51:15 4.8 C 6.24 g/m*3 4.8 C 0 km/h
198 30-10-2008 10:16:15 4.7 C 6 g/m*3 4.7 C 0 km/h
199 30-10-2008 10:41:15 4.7 C 5.93 g/m*3 4.7 C 0 km/h
200 30-10-2008 11:06:15 5.1 C 6.02 g/m*3 5.1 C 0 km/h
Sensor: Nr:Datum:Temp:Abs-Feuchte:Windchill:Wind:
Aussen-T/F 201 30-10-2008 11:31:15 5.3 C 6.1 g/m*3 5.3 C 0 km/h
202 30-10-2008 11:56:15 5.8 C 6.23 g/m*3 5.8 C 0 km/h
203 30-10-2008 12:21:15 5.7 C 6.05 g/m*3 5.7 C 0 km/h
204 30-10-2008 12:46:15 5.6 C 6.08 g/m*3 5.6 C 0 km/h
205 30-10-2008 13:11:15 5.7 C 6.12 g/m*3 5.7 C 0 km/h
206 30-10-2008 13:36:15 5.3 C 5.82 g/m*3 5.3 C 0 km/h
207 30-10-2008 14:01:15 5.7 C 6.05 g/m*3 5.7 C 0 km/h
208 30-10-2008 14:26:15 5.6 C 6.08 g/m*3 5.6 C 0 km/h
209 30-10-2008 14:51:15 5.4 C 6 g/m*3 5.4 C 0 km/h
210 30-10-2008 15:16:15 5.8 C 6.16 g/m*3 5.8 C 0 km/h
211 30-10-2008 15:41:15 5.7 C 6.05 g/m*3 5.7 C 0 km/h
212 30-10-2008 16:06:15 5.7 C 6.12 g/m*3 5.7 C 0 km/h
213 30-10-2008 16:31:15 5.7 C 6.19 g/m*3 5.7 C 0 km/h
214 30-10-2008 16:56:16 5.4 C 6.07 g/m*3 5.4 C 0 km/h
215 30-10-2008 17:21:16 4.8 C 5.9 g/m*3 4.8 C 0 km/h
216 30-10-2008 17:46:16 4.7 C 5.86 g/m*3 4.7 C 0 km/h
217 30-10-2008 18:11:16 4.8 C 5.97 g/m*3 4.8 C 0 km/h
218 30-10-2008 18:36:16 4.6 C 5.89 g/m*3 4.6 C 0 km/h
219 30-10-2008 19:01:16 4.6 C 6.02 g/m*3 4.6 C 0 km/h
220 30-10-2008 19:26:16 4.6 C 6.02 g/m*3 4.6 C 0 km/h
221 30-10-2008 19:51:16 4.6 C 6.09 g/m*3 4.6 C 0 km/h
222 30-10-2008 20:16:16 4.4 C 6.01 g/m*3 4.4 C 0 km/h
223 30-10-2008 20:41:16 4.5 C 6.11 g/m*3 4.5 C 0 km/h
224 30-10-2008 21:06:16 4.4 C 6.07 g/m*3 4.4 C 0 km/h
225 30-10-2008 21:31:16 4.3 C 6.03 g/m*3 4.3 C 0 km/h
Sensor: Nr:Datum:Temp:Abs-Feuchte:Windchill:Wind:
Aussen-T/F 226 30-10-2008 21:56:16 4.3 C 6.03 g/m*3 4.3 C 0 km/h
227 30-10-2008 22:21:16 4.3 C 6.1 g/m*3 4.3 C 0 km/h
228 30-10-2008 22:46:16 4.3 C 6.1 g/m*3 4.3 C 0 km/h
229 30-10-2008 23:11:16 4.1 C 6.02 g/m*3 4.1 C 0 km/h
230 30-10-2008 23:36:16 3.9 C 5.94 g/m*3 3.9 C 0 km/h
231 31-10-2008 00:01:16 3.8 C 5.96 g/m*3 3.8 C 0 km/h
232 31-10-2008 00:26:16 3.7 C 5.92 g/m*3 3.7 C 0 km/h
233 31-10-2008 00:51:16 3.4 C 5.8 g/m*3 3.4 C 0 km/h
234 31-10-2008 01:16:16 3.2 C 5.72 g/m*3 3.2 C 0 km/h
235 31-10-2008 01:41:17 2.8 C 5.57 g/m*3 2.8 C 0 km/h
236 31-10-2008 02:06:17 2.7 C 5.54 g/m*3 2.7 C 0 km/h
237 31-10-2008 02:31:17 2.9 C 5.61 g/m*3 2.9 C 0 km/h
238 31-10-2008 02:56:17 3.2 C 5.72 g/m*3 3.2 C 0 km/h
239 31-10-2008 03:21:17 3.1 C 5.69 g/m*3 3.1 C 0 km/h
240 31-10-2008 03:46:17 3 C 5.65 g/m*3 3 C 0 km/h
241 31-10-2008 04:11:17 3.1 C 5.69 g/m*3 3.1 C 0 km/h
242 31-10-2008 04:36:17 3.2 C 5.72 g/m*3 3.2 C 0 km/h
243 31-10-2008 05:01:17 3.3 C 5.76 g/m*3 3.3 C 0 km/h
244 31-10-2008 05:26:17 3.6 C 5.88 g/m*3 3.6 C 0 km/h
245 31-10-2008 05:51:17 3.7 C 5.92 g/m*3 3.7 C 0 km/h
246 31-10-2008 06:16:17 3.8 C 5.96 g/m*3 3.8 C 0 km/h
247 31-10-2008 06:41:17 4 C 6.04 g/m*3 4 C 0 km/h
248 31-10-2008 07:06:17 4 C 6.04 g/m*3 4 C 0 km/h
249 31-10-2008 07:31:17 4 C 6.04 g/m*3 4 C 0 km/h
250 31-10-2008 07:56:17 4.1 C 6.08 g/m*3 4.1 C 0 km/h
Sensor: Nr:Datum:Temp:Abs-Feuchte:Windchill:Wind:
Aussen-T/F 251 31-10-2008 08:21:17 4.3 C 6.16 g/m*3 4.3 C 0 km/h
252 31-10-2008 08:46:17 4.5 C 6.24 g/m*3 4.5 C 0 km/h
253 31-10-2008 09:11:17 4.9 C 6.41 g/m*3 4.9 C 0 km/h
254 31-10-2008 09:36:17 5.4 C 6.63 g/m*3 5.4 C 0 km/h
255 31-10-2008 10:01:17 5.8 C 6.81 g/m*3 5.8 C 0 km/h
256 31-10-2008 10:26:18 6.3 C 6.74 g/m*3 6.3 C 0 km/h
257 31-10-2008 10:51:18 6.5 C 6.6 g/m*3 6.5 C 0 km/h
258 31-10-2008 11:16:18 7.1 C 6.55 g/m*3 7.1 C 0 km/h
259 31-10-2008 11:41:18 7 C 6.51 g/m*3 7 C 0 km/h
260 31-10-2008 12:06:18 7 C 6.66 g/m*3 7 C 0 km/h
261 31-10-2008 12:31:18 7.8 C 7.02 g/m*3 7.8 C 0 km/h
262 31-10-2008 12:56:18 8 C 6.7 g/m*3 8 C 0 km/h
263 31-10-2008 13:21:18 8 C 6.7 g/m*3 8 C 0 km/h
264 31-10-2008 13:46:18 8.8 C 6.7 g/m*3 8.8 C 0 km/h
265 31-10-2008 14:11:18 9.5 C 6.74 g/m*3 9.5 C 0 km/h
266 31-10-2008 14:36:18 10 C 6.77 g/m*3 10 C 0 km/h
267 31-10-2008 15:01:18 11.2 C 6.99 g/m*3 11.2 C 0 km/h
268 31-10-2008 15:26:18 11.1 C 6.35 g/m*3 11.1 C 0 km/h
269 31-10-2008 15:51:18 10.2 C 6.38 g/m*3 10.2 C 0 km/h
270 31-10-2008 16:16:18 9.6 C 6.5 g/m*3 9.6 C 0 km/h
271 31-10-2008 16:41:18 8.9 C 6.48 g/m*3 8.9 C 0 km/h
272 31-10-2008 17:06:18 8.4 C 6.53 g/m*3 8.4 C 0 km/h
273 31-10-2008 17:31:18 8.1 C 6.32 g/m*3 8.1 C 0 km/h
274 31-10-2008 17:56:18 7.9 C 6.32 g/m*3 7.9 C 0 km/h
275 31-10-2008 18:21:18 7.3 C 6.32 g/m*3 7.3 C 0 km/h
Sensor: Nr:Datum:Temp:Abs-Feuchte:Windchill:Wind:
Aussen-T/F 276 31-10-2008 18:46:19 6.8 C 6.42 g/m*3 6.8 C 0 km/h
277 31-10-2008 19:11:19 7 C 6.51 g/m*3 7 C 0 km/h
278 31-10-2008 19:36:19 6.8 C 6.5 g/m*3 6.8 C 0 km/h
279 31-10-2008 20:01:19 6.7 C 6.53 g/m*3 6.7 C 0 km/h
280 31-10-2008 20:26:19 6.5 C 6.52 g/m*3 6.5 C 0 km/h
281 31-10-2008 20:51:19 6.4 C 6.56 g/m*3 6.4 C 0 km/h
282 31-10-2008 21:16:19 6.2 C 6.47 g/m*3 6.2 C 0 km/h
283 31-10-2008 21:41:19 6.2 C 6.55 g/m*3 6.2 C 0 km/h
284 31-10-2008 22:06:19 6.2 C 6.55 g/m*3 6.2 C 0 km/h
285 31-10-2008 22:31:19 6.2 C 6.55 g/m*3 6.2 C 0 km/h
286 31-10-2008 22:56:19 6.3 C 6.66 g/m*3 6.3 C 0 km/h
287 31-10-2008 23:21:19 6.5 C 6.75 g/m*3 6.5 C 0 km/h
288 31-10-2008 23:46:19 6.5 C 6.67 g/m*3 6.5 C 0 km/h
289 01-11-2008 00:11:19 6.4 C 6.63 g/m*3 6.4 C 0 km/h
290 01-11-2008 00:36:19 6.3 C 6.66 g/m*3 6.3 C 0 km/h
291 01-11-2008 01:01:19 6.4 C 6.71 g/m*3 6.4 C 0 km/h
292 01-11-2008 01:26:19 6.4 C 6.78 g/m*3 6.4 C 0 km/h
293 01-11-2008 01:51:19 6.4 C 6.85 g/m*3 6.4 C 0 km/h
294 01-11-2008 02:16:19 6.3 C 6.81 g/m*3 6.3 C 0 km/h
295 01-11-2008 02:41:19 6.2 C 6.84 g/m*3 6.2 C 0 km/h
296 01-11-2008 03:06:19 6.2 C 6.91 g/m*3 6.2 C 0 km/h
297 01-11-2008 03:31:20 6 C 6.82 g/m*3 6 C 0 km/h
298 01-11-2008 03:56:20 5.9 C 6.85 g/m*3 5.9 C 0 km/h
299 01-11-2008 04:21:20 6 C 6.9 g/m*3 6 C 0 km/h
300 01-11-2008 04:46:20 5.9 C 6.85 g/m*3 5.9 C 0 km/h
Sensor: Nr:Datum:Temp:Abs-Feuchte:Windchill:Wind:
Aussen-T/F 301 01-11-2008 05:11:20 6 C 6.9 g/m*3 6 C 0 km/h
302 01-11-2008 05:36:20 6 C 6.9 g/m*3 6 C 0 km/h
303 01-11-2008 06:01:20 5.9 C 6.85 g/m*3 5.9 C 0 km/h
304 01-11-2008 06:26:20 5.9 C 6.85 g/m*3 5.9 C 0 km/h
305 01-11-2008 06:51:20 5.7 C 6.76 g/m*3 5.7 C 0 km/h
306 01-11-2008 07:16:20 5.5 C 6.67 g/m*3 5.5 C 0 km/h
307 01-11-2008 07:41:20 5.3 C 6.58 g/m*3 5.3 C 0 km/h
308 01-11-2008 08:06:20 5.6 C 6.72 g/m*3 5.6 C 0 km/h
309 01-11-2008 08:31:20 5.9 C 6.85 g/m*3 5.9 C 0 km/h
310 01-11-2008 08:56:20 6.5 C 7.12 g/m*3 6.5 C 0 km/h
311 01-11-2008 09:21:20 7.1 C 7.41 g/m*3 7.1 C 0 km/h
312 01-11-2008 09:46:20 7.4 C 7.55 g/m*3 7.4 C 0 km/h
313 01-11-2008 10:11:20 7.9 C 7.56 g/m*3 7.9 C 0 km/h
314 01-11-2008 10:36:20 8.2 C 7.2 g/m*3 8.2 C 0 km/h
315 01-11-2008 11:01:20 8.5 C 7.09 g/m*3 8.5 C 0 km/h
316 01-11-2008 11:26:20 8.7 C 7.01 g/m*3 8.7 C 0 km/h
317 01-11-2008 11:51:20 9.3 C 6.74 g/m*3 9.3 C 0 km/h
318 01-11-2008 12:16:21 9.6 C 6.78 g/m*3 9.6 C 0 km/h
319 01-11-2008 12:41:21 10 C 6.58 g/m*3 10 C 0 km/h
320 01-11-2008 13:06:21 10 C 6.58 g/m*3 10 C 0 km/h
321 01-11-2008 13:31:21 10.3 C 6.7 g/m*3 10.3 C 0 km/h
322 01-11-2008 13:56:21 10.3 C 6.8 g/m*3 10.3 C 0 km/h
323 01-11-2008 14:21:21 10.4 C 6.84 g/m*3 10.4 C 0 km/h
324 01-11-2008 14:46:21 10.5 C 6.89 g/m*3 10.5 C 0 km/h
325 01-11-2008 15:11:21 10.8 C 6.92 g/m*3 10.8 C 0 km/h
Sensor: Nr:Datum:Temp:Abs-Feuchte:Windchill:Wind:
Aussen-T/F 326 01-11-2008 15:36:21 10.5 C 7.18 g/m*3 10.5 C 0 km/h
327 01-11-2008 16:01:21 10.1 C 7.28 g/m*3 10.1 C 0 km/h
328 01-11-2008 16:26:21 9.8 C 7.52 g/m*3 9.8 C 0 km/h
329 01-11-2008 16:51:21 9.5 C 7.55 g/m*3 9.5 C 0 km/h
330 01-11-2008 17:16:21 9.4 C 7.6 g/m*3 9.4 C 0 km/h
331 01-11-2008 17:41:21 9.5 C 7.74 g/m*3 9.5 C 0 km/h
332 01-11-2008 18:06:21 9.4 C 7.69 g/m*3 9.4 C 0 km/h
333 01-11-2008 18:31:21 9.2 C 7.59 g/m*3 9.2 C 0 km/h
334 01-11-2008 18:56:21 9.2 C 7.68 g/m*3 9.2 C 0 km/h
335 01-11-2008 19:21:21 9.2 C 7.68 g/m*3 9.2 C 0 km/h
336 01-11-2008 19:46:21 9.2 C 7.68 g/m*3 9.2 C 0 km/h
337 01-11-2008 20:11:21 9 C 7.41 g/m*3 9 C 0 km/h
338 01-11-2008 20:36:22 8.9 C 7.53 g/m*3 8.9 C 0 km/h
339 01-11-2008 21:01:22 8.7 C 7.52 g/m*3 8.7 C 0 km/h
340 01-11-2008 21:26:22 8.4 C 7.38 g/m*3 8.4 C 0 km/h
341 01-11-2008 21:51:22 8.3 C 7.42 g/m*3 8.3 C 0 km/h
342 01-11-2008 22:16:22 8.6 C 7.65 g/m*3 8.6 C 0 km/h
343 01-11-2008 22:41:22 8.6 C 7.73 g/m*3 8.6 C 0 km/h
344 01-11-2008 23:06:22 8.5 C 7.68 g/m*3 8.5 C 0 km/h
345 01-11-2008 23:31:22 8.4 C 7.63 g/m*3 8.4 C 0 km/h
346 01-11-2008 23:56:22 8.4 C 7.72 g/m*3 8.4 C 0 km/h
347 02-11-2008 00:21:22 8.5 C 7.77 g/m*3 8.5 C 0 km/h
348 02-11-2008 00:46:22 8.5 C 7.85 g/m*3 8.5 C 0 km/h
349 02-11-2008 01:11:22 9.6 C 7.79 g/m*3 9.6 C 0 km/h
350 02-11-2008 01:36:22 9.8 C 7.42 g/m*3 9.8 C 0 km/h
Sensor: Nr:Datum:Temp:Abs-Feuchte:Windchill:Wind:
Aussen-T/F 351 02-11-2008 02:01:22 9.3 C 7.46 g/m*3 9.3 C 0 km/h
352 02-11-2008 02:26:22 9.4 C 7.51 g/m*3 9.4 C 0 km/h
353 02-11-2008 02:51:22 9 C 7.41 g/m*3 9 C 0 km/h
354 02-11-2008 03:16:22 8.9 C 7.53 g/m*3 8.9 C 0 km/h
355 02-11-2008 03:41:22 8.5 C 7.43 g/m*3 8.5 C 0 km/h
356 02-11-2008 04:06:22 8.3 C 7.5 g/m*3 8.3 C 0 km/h
357 02-11-2008 04:31:22 8.1 C 7.49 g/m*3 8.1 C 0 km/h
358 02-11-2008 04:56:22 7.9 C 7.47 g/m*3 7.9 C 0 km/h
359 02-11-2008 05:21:23 7.6 C 7.41 g/m*3 7.6 C 0 km/h
360 02-11-2008 05:46:23 7.6 C 7.41 g/m*3 7.6 C 0 km/h
361 02-11-2008 06:11:23 7.4 C 7.4 g/m*3 7.4 C 0 km/h
362 02-11-2008 06:36:23 7.5 C 7.52 g/m*3 7.5 C 0 km/h
363 02-11-2008 07:01:23 7.4 C 7.48 g/m*3 7.4 C 0 km/h
364 02-11-2008 07:26:23 7.3 C 7.43 g/m*3 7.3 C 0 km/h
365 02-11-2008 07:51:23 7.1 C 7.33 g/m*3 7.1 C 0 km/h
366 02-11-2008 08:16:23 7.3 C 7.43 g/m*3 7.3 C 0 km/h
367 02-11-2008 08:41:23 7.6 C 7.65 g/m*3 7.6 C 0 km/h
368 02-11-2008 09:06:23 7.6 C 7.65 g/m*3 7.6 C 0 km/h
369 02-11-2008 09:31:23 8.1 C 7.82 g/m*3 8.1 C 0 km/h
370 02-11-2008 09:56:23 8.7 C 8.13 g/m*3 8.7 C 0 km/h
371 02-11-2008 10:21:23 9.5 C 8.47 g/m*3 9.5 C 0 km/h
372 02-11-2008 10:46:23 10.1 C 8.42 g/m*3 10.1 C 0 km/h
373 02-11-2008 11:11:23 10.8 C 8.2 g/m*3 10.8 C 0 km/h
374 02-11-2008 11:36:23 11.5 C 8.06 g/m*3 11.5 C 0 km/h
375 02-11-2008 12:01:23 12.5 C 8.25 g/m*3 12.5 C 0 km/h
Sensor: Nr:Datum:Temp:Abs-Feuchte:Windchill:Wind:
Aussen-T/F 376 02-11-2008 12:26:23 13.4 C 8.02 g/m*3 13.4 C 0 km/h
377 02-11-2008 12:51:23 13.5 C 7.84 g/m*3 13.5 C 0 km/h
378 02-11-2008 13:16:23 13.8 C 7.74 g/m*3 13.8 C 0 km/h
379 02-11-2008 13:41:24 14.1 C 7.89 g/m*3 14.1 C 0 km/h
380 02-11-2008 14:06:24 15.4 C 7.88 g/m*3 15.4 C 0 km/h
381 02-11-2008 14:31:24 14.8 C 7.73 g/m*3 14.8 C 0 km/h
382 02-11-2008 14:56:24 14.4 C 7.91 g/m*3 14.4 C 0 km/h
383 02-11-2008 15:21:24 14.4 C 7.91 g/m*3 14.4 C 0 km/h
384 02-11-2008 15:46:24 13.8 C 8.1 g/m*3 13.8 C 0 km/h
385 02-11-2008 16:11:24 13.5 C 8.19 g/m*3 13.5 C 0 km/h
386 02-11-2008 16:36:24 12.6 C 8.19 g/m*3 12.6 C 0 km/h
387 02-11-2008 17:01:24 11.8 C 8.1 g/m*3 11.8 C 0 km/h
388 02-11-2008 17:26:24 11.2 C 8.01 g/m*3 11.2 C 0 km/h
389 02-11-2008 17:51:24 10.6 C 8 g/m*3 10.6 C 0 km/h
390 02-11-2008 18:16:24 10.7 C 8.15 g/m*3 10.7 C 0 km/h
391 02-11-2008 18:41:24 10.1 C 7.85 g/m*3 10.1 C 0 km/h
392 02-11-2008 19:06:24 9.9 C 7.94 g/m*3 9.9 C 0 km/h
393 02-11-2008 19:31:24 9.8 C 7.89 g/m*3 9.8 C 0 km/h
394 02-11-2008 19:56:24 9.6 C 7.88 g/m*3 9.6 C 0 km/h
395 02-11-2008 20:21:24 9.4 C 7.87 g/m*3 9.4 C 0 km/h
396 02-11-2008 20:46:24 9.2 C 7.86 g/m*3 9.2 C 0 km/h
397 02-11-2008 21:11:24 9.1 C 7.81 g/m*3 9.1 C 0 km/h
398 02-11-2008 21:36:24 9.1 C 7.9 g/m*3 9.1 C 0 km/h
399 02-11-2008 22:01:24 9.2 C 7.95 g/m*3 9.2 C 0 km/h
400 02-11-2008 22:26:25 9 C 7.85 g/m*3 9 C 0 km/h
Sensor: Nr:Datum:Temp:Abs-Feuchte:Windchill:Wind:
Aussen-T/F 401 02-11-2008 22:51:25 8.7 C 7.7 g/m*3 8.7 C 0 km/h
402 02-11-2008 23:16:25 8.6 C 7.73 g/m*3 8.6 C 0 km/h
403 02-11-2008 23:41:25 8.2 C 7.62 g/m*3 8.2 C 0 km/h
404 03-11-2008 00:06:25 8.1 C 7.57 g/m*3 8.1 C 0 km/h
405 03-11-2008 00:31:25 8 C 7.52 g/m*3 8 C 0 km/h
406 03-11-2008 00:56:25 7.7 C 7.46 g/m*3 7.7 C 0 km/h
407 03-11-2008 01:21:25 7.8 C 7.59 g/m*3 7.8 C 0 km/h
408 03-11-2008 01:46:25 8 C 7.69 g/m*3 8 C 0 km/h
409 03-11-2008 02:11:25 8 C 7.69 g/m*3 8 C 0 km/h
410 03-11-2008 02:36:25 8 C 7.69 g/m*3 8 C 0 km/h
411 03-11-2008 03:01:25 8.5 C 8.03 g/m*3 8.5 C 0 km/h
412 03-11-2008 03:26:25 8.9 C 8.23 g/m*3 8.9 C 0 km/h
413 03-11-2008 03:51:25 9 C 8.11 g/m*3 9 C 0 km/h
414 03-11-2008 04:16:25 9.1 C 8.07 g/m*3 9.1 C 0 km/h
415 03-11-2008 04:41:25 9.1 C 7.99 g/m*3 9.1 C 0 km/h
416 03-11-2008 05:06:25 9.2 C 7.95 g/m*3 9.2 C 0 km/h
417 03-11-2008 05:31:25 9.2 C 7.86 g/m*3 9.2 C 0 km/h
418 03-11-2008 05:56:25 9.1 C 7.81 g/m*3 9.1 C 0 km/h
419 03-11-2008 06:21:25 9.2 C 7.86 g/m*3 9.2 C 0 km/h
420 03-11-2008 06:46:25 9.2 C 7.77 g/m*3 9.2 C 0 km/h
421 03-11-2008 07:11:26 9.2 C 7.77 g/m*3 9.2 C 0 km/h
422 03-11-2008 07:36:26 9.2 C 7.77 g/m*3 9.2 C 0 km/h
423 03-11-2008 08:01:26 9.4 C 7.87 g/m*3 9.4 C 0 km/h
424 03-11-2008 08:26:26 9.5 C 7.92 g/m*3 9.5 C 0 km/h
425 03-11-2008 08:51:26 9.8 C 8.07 g/m*3 9.8 C 0 km/h
Sensor: Nr:Datum:Temp:Abs-Feuchte:Windchill:Wind:
Aussen-T/F 426 03-11-2008 09:16:26 10.1 C 7.94 g/m*3 10.1 C 0 km/h
427 03-11-2008 09:41:26 10.2 C 7.9 g/m*3 10.2 C 0 km/h
428 03-11-2008 10:06:26 10.4 C 7.81 g/m*3 10.4 C 0 km/h
429 03-11-2008 10:31:26 10.5 C 7.76 g/m*3 10.5 C 0 km/h
430 03-11-2008 10:56:26 11.1 C 7.96 g/m*3 11.1 C 0 km/h
431 03-11-2008 11:21:26 11.4 C 7.8 g/m*3 11.4 C 0 km/h
432 03-11-2008 11:46:26 11.7 C 7.84 g/m*3 11.7 C 0 km/h
433 03-11-2008 12:11:26 12.7 C 8.24 g/m*3 12.7 C 0 km/h
434 03-11-2008 12:36:26 13.1 C 7.99 g/m*3 13.1 C 0 km/h
435 03-11-2008 13:01:26 13.4 C 7.9 g/m*3 13.4 C 0 km/h
436 03-11-2008 13:26:26 13.4 C 7.9 g/m*3 13.4 C 0 km/h
437 03-11-2008 13:51:26 13.5 C 7.72 g/m*3 13.5 C 0 km/h
438 03-11-2008 14:16:26 13.6 C 7.77 g/m*3 13.6 C 0 km/h
439 03-11-2008 14:41:26 14.4 C 7.79 g/m*3 14.4 C 0 km/h
440 03-11-2008 15:06:27 14 C 7.84 g/m*3 14 C 0 km/h
441 03-11-2008 15:31:27 13.3 C 8.09 g/m*3 13.3 C 0 km/h
442 03-11-2008 15:56:27 13.2 C 8.27 g/m*3 13.2 C 0 km/h
443 03-11-2008 16:21:27 12.7 C 8.24 g/m*3 12.7 C 0 km/h
444 03-11-2008 16:46:27 12.3 C 8.25 g/m*3 12.3 C 0 km/h
445 03-11-2008 17:11:27 11.5 C 8.06 g/m*3 11.5 C 0 km/h
446 03-11-2008 17:36:27 10.8 C 8.01 g/m*3 10.8 C 0 km/h
447 03-11-2008 18:01:27 10.1 C 7.85 g/m*3 10.1 C 0 km/h
448 03-11-2008 18:26:27 9.7 C 7.93 g/m*3 9.7 C 0 km/h
449 03-11-2008 18:51:27 9.3 C 7.82 g/m*3 9.3 C 0 km/h
450 03-11-2008 19:16:27 9 C 7.76 g/m*3 9 C 0 km/h
Sensor: Nr:Datum:Temp:Abs-Feuchte:Windchill:Wind:
Aussen-T/F 451 03-11-2008 19:41:27 8.5 C 7.6 g/m*3 8.5 C 0 km/h
452 03-11-2008 20:06:27 8.4 C 7.63 g/m*3 8.4 C 0 km/h
453 03-11-2008 20:31:27 8.1 C 7.49 g/m*3 8.1 C 0 km/h
454 03-11-2008 20:56:27 7.9 C 7.56 g/m*3 7.9 C 0 km/h
455 03-11-2008 21:21:27 7.5 C 7.36 g/m*3 7.5 C 0 km/h
456 03-11-2008 21:46:27 7.1 C 7.18 g/m*3 7.1 C 0 km/h
457 03-11-2008 22:11:27 6.8 C 7.11 g/m*3 6.8 C 0 km/h
458 03-11-2008 22:36:27 6.6 C 7.02 g/m*3 6.6 C 0 km/h
459 03-11-2008 23:01:27 6.4 C 6.93 g/m*3 6.4 C 0 km/h
460 03-11-2008 23:26:28 6.7 C 7.14 g/m*3 6.7 C 0 km/h
461 03-11-2008 23:51:28 7.1 C 7.33 g/m*3 7.1 C 0 km/h
462 04-11-2008 00:16:28 6.9 C 7.31 g/m*3 6.9 C 0 km/h
463 04-11-2008 00:41:28 6.7 C 7.22 g/m*3 6.7 C 0 km/h
464 04-11-2008 01:06:28 6.8 C 7.27 g/m*3 6.8 C 0 km/h
465 04-11-2008 01:31:28 6.8 C 7.27 g/m*3 6.8 C 0 km/h
466 04-11-2008 01:56:28 6.6 C 7.17 g/m*3 6.6 C 0 km/h
467 04-11-2008 02:21:28 6.5 C 7.12 g/m*3 6.5 C 0 km/h
468 04-11-2008 02:46:28 6.7 C 7.22 g/m*3 6.7 C 0 km/h
469 04-11-2008 03:11:28 6.8 C 7.27 g/m*3 6.8 C 0 km/h
470 04-11-2008 03:36:28 6.8 C 7.27 g/m*3 6.8 C 0 km/h
471 04-11-2008 04:01:28 6.8 C 7.27 g/m*3 6.8 C 0 km/h
472 04-11-2008 04:26:28 6.7 C 7.22 g/m*3 6.7 C 0 km/h
473 04-11-2008 04:51:28 6.8 C 7.27 g/m*3 6.8 C 0 km/h
474 04-11-2008 05:16:28 6.4 C 7.08 g/m*3 6.4 C 0 km/h
475 04-11-2008 05:41:28 6.3 C 7.03 g/m*3 6.3 C 0 km/h
Sensor: Nr:Datum:Temp:Abs-Feuchte:Windchill:Wind:
Aussen-T/F 476 04-11-2008 06:06:28 6.2 C 6.99 g/m*3 6.2 C 0 km/h
477 04-11-2008 06:31:28 6.3 C 7.03 g/m*3 6.3 C 0 km/h
478 04-11-2008 06:56:28 6.4 C 7.08 g/m*3 6.4 C 0 km/h
479 04-11-2008 07:21:29 6.4 C 7.08 g/m*3 6.4 C 0 km/h
480 04-11-2008 07:46:29 6.5 C 7.12 g/m*3 6.5 C 0 km/h
481 04-11-2008 08:11:29 6.6 C 7.17 g/m*3 6.6 C 0 km/h
482 04-11-2008 08:36:29 6.6 C 7.17 g/m*3 6.6 C 0 km/h
483 04-11-2008 09:01:29 6.9 C 7.31 g/m*3 6.9 C 0 km/h
484 04-11-2008 09:26:29 7.4 C 7.55 g/m*3 7.4 C 0 km/h
485 04-11-2008 09:51:29 7.7 C 7.7 g/m*3 7.7 C 0 km/h
486 04-11-2008 10:16:29 8.1 C 7.9 g/m*3 8.1 C 0 km/h
487 04-11-2008 10:41:29 7.8 C 7.75 g/m*3 7.8 C 0 km/h
488 04-11-2008 11:06:29 8.5 C 8.03 g/m*3 8.5 C 0 km/h
489 04-11-2008 11:31:29 9 C 8.11 g/m*3 9 C 0 km/h
490 04-11-2008 11:56:29 9 C 7.93 g/m*3 9 C 0 km/h
491 04-11-2008 12:21:29 9.1 C 7.81 g/m*3 9.1 C 0 km/h
492 04-11-2008 12:46:29 9.7 C 8.11 g/m*3 9.7 C 0 km/h
493 04-11-2008 13:11:29 12 C 8.85 g/m*3 12 C 0 km/h
494 04-11-2008 13:36:29 13.7 C 8.05 g/m*3 13.7 C 0 km/h
495 04-11-2008 14:01:29 14.5 C 8.46 g/m*3 14.5 C 0 km/h
496 04-11-2008 14:26:29 14.4 C 8.41 g/m*3 14.4 C 0 km/h
497 04-11-2008 14:51:29 14.4 C 8.41 g/m*3 14.4 C 0 km/h
498 04-11-2008 15:16:30 13.9 C 8.51 g/m*3 13.9 C 0 km/h
499 04-11-2008 15:41:30 13.4 C 8.49 g/m*3 13.4 C 0 km/h
500 04-11-2008 16:06:30 12.8 C 8.4 g/m*3 12.8 C 0 km/h
Sensor: Nr:Datum:Temp:Abs-Feuchte:Windchill:Wind:
Aussen-T/F 501 04-11-2008 16:31:30 12.1 C 8.36 g/m*3 12.1 C 0 km/h
502 04-11-2008 16:56:30 11.8 C 8.21 g/m*3 11.8 C 0 km/h
503 04-11-2008 17:21:30 11.9 C 8.26 g/m*3 11.9 C 0 km/h
504 04-11-2008 17:46:30 11.1 C 8.16 g/m*3 11.1 C 0 km/h
505 04-11-2008 18:11:30 10.9 C 8.26 g/m*3 10.9 C 0 km/h
506 04-11-2008 18:36:30 10.8 C 8.4 g/m*3 10.8 C 0 km/h
507 04-11-2008 19:01:30 10.6 C 8.39 g/m*3 10.6 C 0 km/h
508 04-11-2008 19:26:30 10.4 C 8.29 g/m*3 10.4 C 0 km/h
509 04-11-2008 19:51:30 10.2 C 8.28 g/m*3 10.2 C 0 km/h
510 04-11-2008 20:16:30 10.1 C 8.32 g/m*3 10.1 C 0 km/h
511 04-11-2008 20:41:30 9.7 C 8.2 g/m*3 9.7 C 0 km/h
512 04-11-2008 21:06:30 9.3 C 8.09 g/m*3 9.3 C 0 km/h
513 04-11-2008 21:31:30 9.1 C 7.99 g/m*3 9.1 C 0 km/h
514 04-11-2008 21:56:30 9.1 C 8.07 g/m*3 9.1 C 0 km/h
515 04-11-2008 22:21:30 9.1 C 8.16 g/m*3 9.1 C 0 km/h
516 04-11-2008 22:46:30 8.7 C 8.04 g/m*3 8.7 C 0 km/h
517 04-11-2008 23:11:31 8.4 C 7.89 g/m*3 8.4 C 0 km/h
518 04-11-2008 23:36:31 9 C 8.2 g/m*3 9 C 0 km/h
519 05-11-2008 00:01:31 8.7 C 8.04 g/m*3 8.7 C 0 km/h
520 05-11-2008 00:26:31 8.7 C 8.04 g/m*3 8.7 C 0 km/h
521 05-11-2008 00:51:31 8.6 C 7.99 g/m*3 8.6 C 0 km/h
522 05-11-2008 01:16:31 8.7 C 8.04 g/m*3 8.7 C 0 km/h
523 05-11-2008 01:41:31 8.8 C 7.92 g/m*3 8.8 C 0 km/h
524 05-11-2008 02:06:31 8.7 C 7.7 g/m*3 8.7 C 0 km/h
525 05-11-2008 02:31:31 8.5 C 7.6 g/m*3 8.5 C 0 km/h
Sensor: Nr:Datum:Temp:Abs-Feuchte:Windchill:Wind:
Aussen-T/F 526 05-11-2008 02:56:31 8.4 C 7.55 g/m*3 8.4 C 0 km/h
527 05-11-2008 03:21:31 8.3 C 7.5 g/m*3 8.3 C 0 km/h
528 05-11-2008 03:46:31 8.4 C 7.55 g/m*3 8.4 C 0 km/h
529 05-11-2008 04:11:31 8.2 C 7.37 g/m*3 8.2 C 0 km/h
530 05-11-2008 04:36:31 7.9 C 7.39 g/m*3 7.9 C 0 km/h
531 05-11-2008 05:01:31 8.2 C 7.45 g/m*3 8.2 C 0 km/h
532 05-11-2008 05:26:31 8.4 C 7.55 g/m*3 8.4 C 0 km/h
533 05-11-2008 05:51:31 8.4 C 7.55 g/m*3 8.4 C 0 km/h
534 05-11-2008 06:16:31 8.4 C 7.38 g/m*3 8.4 C 0 km/h
535 05-11-2008 06:41:31 8.5 C 7.34 g/m*3 8.5 C 0 km/h
536 05-11-2008 07:06:31 8.4 C 7.21 g/m*3 8.4 C 0 km/h
537 05-11-2008 07:31:32 8.4 C 7.21 g/m*3 8.4 C 0 km/h
538 05-11-2008 07:56:32 8.5 C 7.26 g/m*3 8.5 C 0 km/h
539 05-11-2008 08:21:32 8.7 C 7.35 g/m*3 8.7 C 0 km/h
540 05-11-2008 08:46:32 8.9 C 7.45 g/m*3 8.9 C 0 km/h
541 05-11-2008 09:11:32 9.2 C 7.5 g/m*3 9.2 C 0 km/h
542 05-11-2008 09:36:32 9.8 C 7.79 g/m*3 9.8 C 0 km/h
543 05-11-2008 10:01:32 10 C 7.42 g/m*3 10 C 0 km/h
544 05-11-2008 10:26:32 10.7 C 7.46 g/m*3 10.7 C 0 km/h
545 05-11-2008 10:51:32 10.7 C 7.46 g/m*3 10.7 C 0 km/h
546 05-11-2008 11:16:32 10.9 C 7.46 g/m*3 10.9 C 0 km/h
547 05-11-2008 11:41:32 11 C 7.51 g/m*3 11 C 0 km/h
548 05-11-2008 12:06:32 11.1 C 7.45 g/m*3 11.1 C 0 km/h
549 05-11-2008 12:31:32 11 C 7.41 g/m*3 11 C 0 km/h
550 05-11-2008 12:56:32 10.8 C 7.51 g/m*3 10.8 C 0 km/h
Sensor: Nr:Datum:Temp:Abs-Feuchte:Windchill:Wind:
Aussen-T/F 551 05-11-2008 13:21:32 11 C 7.61 g/m*3 11 C 0 km/h
552 05-11-2008 13:46:32 11.2 C 7.6 g/m*3 11.2 C 0 km/h
553 05-11-2008 14:11:32 11.2 C 7.7 g/m*3 11.2 C 0 km/h
554 05-11-2008 14:36:32 11.4 C 7.8 g/m*3 11.4 C 0 km/h
555 05-11-2008 15:01:32 11.5 C 7.64 g/m*3 11.5 C 0 km/h
556 05-11-2008 15:26:33 11.5 C 7.64 g/m*3 11.5 C 0 km/h
557 05-11-2008 15:51:33 11.4 C 7.7 g/m*3 11.4 C 0 km/h
558 05-11-2008 16:16:33 11.1 C 7.66 g/m*3 11.1 C 0 km/h
559 05-11-2008 16:41:33 10.9 C 7.76 g/m*3 10.9 C 0 km/h
560 05-11-2008 17:06:33 10.7 C 7.66 g/m*3 10.7 C 0 km/h
561 05-11-2008 17:31:33 10.5 C 7.66 g/m*3 10.5 C 0 km/h
562 05-11-2008 17:56:33 10.5 C 7.76 g/m*3 10.5 C 0 km/h
563 05-11-2008 18:21:33 10.4 C 7.81 g/m*3 10.4 C 0 km/h
564 05-11-2008 18:46:33 10.4 C 7.81 g/m*3 10.4 C 0 km/h
565 05-11-2008 19:11:33 10.4 C 7.9 g/m*3 10.4 C 0 km/h
566 05-11-2008 19:36:33 10.3 C 7.85 g/m*3 10.3 C 0 km/h
567 05-11-2008 20:01:33 10.3 C 7.85 g/m*3 10.3 C 0 km/h
568 05-11-2008 20:26:33 10.3 C 7.95 g/m*3 10.3 C 0 km/h
569 05-11-2008 20:51:33 10.2 C 7.9 g/m*3 10.2 C 0 km/h
570 05-11-2008 21:16:33 10.2 C 7.9 g/m*3 10.2 C 0 km/h
571 05-11-2008 21:41:33 10.2 C 7.9 g/m*3 10.2 C 0 km/h
572 05-11-2008 22:06:33 10.2 C 7.9 g/m*3 10.2 C 0 km/h
573 05-11-2008 22:31:33 10.2 C 7.99 g/m*3 10.2 C 0 km/h
574 05-11-2008 22:56:33 10.2 C 7.99 g/m*3 10.2 C 0 km/h
575 05-11-2008 23:21:34 10.2 C 7.99 g/m*3 10.2 C 0 km/h
Sensor: Nr:Datum:Temp:Abs-Feuchte:Windchill:Wind:
Aussen-T/F 576 05-11-2008 23:46:34 10 C 7.99 g/m*3 10 C 0 km/h
577 06-11-2008 00:11:34 10 C 7.99 g/m*3 10 C 0 km/h
578 06-11-2008 00:36:34 10 C 7.99 g/m*3 10 C 0 km/h
579 06-11-2008 01:01:34 10 C 7.99 g/m*3 10 C 0 km/h
580 06-11-2008 01:26:34 9.9 C 8.12 g/m*3 9.9 C 0 km/h
581 06-11-2008 01:51:34 9.8 C 8.07 g/m*3 9.8 C 0 km/h
582 06-11-2008 02:16:34 9.8 C 7.98 g/m*3 9.8 C 0 km/h
583 06-11-2008 02:41:34 9.7 C 7.84 g/m*3 9.7 C 0 km/h
584 06-11-2008 03:06:34 9.5 C 7.74 g/m*3 9.5 C 0 km/h
585 06-11-2008 03:31:34 9.3 C 7.73 g/m*3 9.3 C 0 km/h
586 06-11-2008 03:56:34 8.9 C 7.62 g/m*3 8.9 C 0 km/h
587 06-11-2008 04:21:34 8.5 C 7.43 g/m*3 8.5 C 0 km/h
588 06-11-2008 04:46:34 8.6 C 7.48 g/m*3 8.6 C 0 km/h
589 06-11-2008 05:11:34 8.9 C 7.71 g/m*3 8.9 C 0 km/h
590 06-11-2008 05:36:34 9 C 7.58 g/m*3 9 C 0 km/h
591 06-11-2008 06:01:34 9 C 7.58 g/m*3 9 C 0 km/h
592 06-11-2008 06:26:34 9.3 C 7.64 g/m*3 9.3 C 0 km/h
593 06-11-2008 06:51:34 9.3 C 7.46 g/m*3 9.3 C 0 km/h
594 06-11-2008 07:16:34 9.3 C 7.46 g/m*3 9.3 C 0 km/h
595 06-11-2008 07:41:35 9.1 C 7.36 g/m*3 9.1 C 0 km/h
596 06-11-2008 08:06:35 9.4 C 7.51 g/m*3 9.4 C 0 km/h
597 06-11-2008 08:31:35 9.7 C 7.56 g/m*3 9.7 C 0 km/h
598 06-11-2008 08:56:35 10 C 7.42 g/m*3 10 C 0 km/h
599 06-11-2008 09:21:35 10.3 C 7.47 g/m*3 10.3 C 0 km/h
600 06-11-2008 09:46:35 10.6 C 7.12 g/m*3 10.6 C 0 km/h
Sensor: Nr:Datum:Temp:Abs-Feuchte:Windchill:Wind:
Aussen-T/F 601 06-11-2008 10:11:35 11 C 7.01 g/m*3 11 C 0 km/h
602 06-11-2008 10:36:35 11.3 C 7.04 g/m*3 11.3 C 0 km/h
603 06-11-2008 11:01:35 12.1 C 7.18 g/m*3 12.1 C 0 km/h
604 06-11-2008 11:26:35 12.4 C 7.1 g/m*3 12.4 C 0 km/h
605 06-11-2008 11:51:35 12.2 C 6.91 g/m*3 12.2 C 0 km/h
606 06-11-2008 12:16:35 12.2 C 6.91 g/m*3 12.2 C 0 km/h
607 06-11-2008 12:41:35 12.1 C 6.97 g/m*3 12.1 C 0 km/h
608 06-11-2008 13:06:35 12.6 C 7.08 g/m*3 12.6 C 0 km/h
609 06-11-2008 13:31:35 12.7 C 7.01 g/m*3 12.7 C 0 km/h
610 06-11-2008 13:56:35 12.4 C 7.1 g/m*3 12.4 C 0 km/h
611 06-11-2008 14:21:35 13 C 7.14 g/m*3 13 C 0 km/h
612 06-11-2008 14:46:35 13.1 C 6.96 g/m*3 13.1 C 0 km/h
613 06-11-2008 15:11:35 13 C 6.92 g/m*3 13 C 0 km/h
614 06-11-2008 15:36:36 12.6 C 6.97 g/m*3 12.6 C 0 km/h
615 06-11-2008 16:01:36 12.4 C 6.99 g/m*3 12.4 C 0 km/h
616 06-11-2008 16:26:36 11.8 C 6.95 g/m*3 11.8 C 0 km/h
617 06-11-2008 16:51:36 11.4 C 6.98 g/m*3 11.4 C 0 km/h
618 06-11-2008 17:16:36 11.1 C 6.95 g/m*3 11.1 C 0 km/h
619 06-11-2008 17:41:36 10.9 C 7.06 g/m*3 10.9 C 0 km/h
620 06-11-2008 18:06:36 10.1 C 6.9 g/m*3 10.1 C 0 km/h
621 06-11-2008 18:31:36 10.1 C 7 g/m*3 10.1 C 0 km/h
622 06-11-2008 18:56:36 10.2 C 7.04 g/m*3 10.2 C 0 km/h
623 06-11-2008 19:21:36 10.4 C 7.13 g/m*3 10.4 C 0 km/h
624 06-11-2008 19:46:36 10.3 C 7.09 g/m*3 10.3 C 0 km/h
625 06-11-2008 20:11:36 10.2 C 7.14 g/m*3 10.2 C 0 km/h
Sensor: Nr:Datum:Temp:Abs-Feuchte:Windchill:Wind:
Aussen-T/F 626 06-11-2008 20:36:36 10.3 C 7.28 g/m*3 10.3 C 0 km/h
627 06-11-2008 21:01:36 10.2 C 7.23 g/m*3 10.2 C 0 km/h
628 06-11-2008 21:26:36 10.4 C 7.23 g/m*3 10.4 C 0 km/h
629 06-11-2008 21:51:36 10.3 C 7.18 g/m*3 10.3 C 0 km/h
630 06-11-2008 22:16:36 10.2 C 7.33 g/m*3 10.2 C 0 km/h
631 06-11-2008 22:41:36 10.2 C 7.33 g/m*3 10.2 C 0 km/h
632 06-11-2008 23:06:36 10.1 C 7.28 g/m*3 10.1 C 0 km/h
633 06-11-2008 23:31:37 10.2 C 7.23 g/m*3 10.2 C 0 km/h
634 06-11-2008 23:56:37 10.2 C 7.23 g/m*3 10.2 C 0 km/h
635 07-11-2008 00:21:37 10.1 C 7.19 g/m*3 10.1 C 0 km/h
636 07-11-2008 00:46:37 10.1 C 7.19 g/m*3 10.1 C 0 km/h
637 07-11-2008 01:11:37 10 C 7.24 g/m*3 10 C 0 km/h
638 07-11-2008 01:36:37 10 C 7.24 g/m*3 10 C 0 km/h
639 07-11-2008 02:01:37 10 C 7.14 g/m*3 10 C 0 km/h
640 07-11-2008 02:26:37 10 C 7.14 g/m*3 10 C 0 km/h
641 07-11-2008 02:51:37 9.9 C 7.28 g/m*3 9.9 C 0 km/h
642 07-11-2008 03:16:37 9.9 C 7.19 g/m*3 9.9 C 0 km/h
643 07-11-2008 03:41:37 10 C 7.14 g/m*3 10 C 0 km/h
644 07-11-2008 04:06:37 10.2 C 7.14 g/m*3 10.2 C 0 km/h
645 07-11-2008 04:31:37 10.1 C 7.19 g/m*3 10.1 C 0 km/h
646 07-11-2008 04:56:37 10.3 C 7.28 g/m*3 10.3 C 0 km/h
647 07-11-2008 05:21:37 10.3 C 7.28 g/m*3 10.3 C 0 km/h
648 07-11-2008 05:46:37 10.2 C 7.23 g/m*3 10.2 C 0 km/h
649 07-11-2008 06:11:37 10.1 C 7.19 g/m*3 10.1 C 0 km/h
650 07-11-2008 06:36:37 10 C 7.14 g/m*3 10 C 0 km/h
Sensor: Nr:Datum:Temp:Abs-Feuchte:Windchill:Wind:
Aussen-T/F 651 07-11-2008 07:01:37 10.1 C 7.09 g/m*3 10.1 C 0 km/h
652 07-11-2008 07:26:38 10.1 C 7 g/m*3 10.1 C 0 km/h
653 07-11-2008 07:51:38 9.8 C 7.05 g/m*3 9.8 C 0 km/h
654 07-11-2008 08:16:38 9.6 C 7.15 g/m*3 9.6 C 0 km/h
655 07-11-2008 08:41:38 10.3 C 6.99 g/m*3 10.3 C 0 km/h
656 07-11-2008 09:06:38 10.8 C 7.02 g/m*3 10.8 C 0 km/h
657 07-11-2008 09:31:38 11 C 6.91 g/m*3 11 C 0 km/h
658 07-11-2008 09:56:38 11.1 C 6.95 g/m*3 11.1 C 0 km/h
659 07-11-2008 10:21:38 11.3 C 7.04 g/m*3 11.3 C 0 km/h
660 07-11-2008 10:46:38 11.2 C 6.89 g/m*3 11.2 C 0 km/h
661 07-11-2008 11:11:38 11.6 C 6.96 g/m*3 11.6 C 0 km/h
662 07-11-2008 11:36:38 12.2 C 6.91 g/m*3 12.2 C 0 km/h
663 07-11-2008 12:01:38 12.7 C 6.9 g/m*3 12.7 C 0 km/h
664 07-11-2008 12:26:38 13.1 C 6.85 g/m*3 13.1 C 0 km/h
665 07-11-2008 12:51:38 13.2 C 6.77 g/m*3 13.2 C 0 km/h
666 07-11-2008 13:16:38 13.8 C 6.91 g/m*3 13.8 C 0 km/h
667 07-11-2008 13:41:38 13.6 C 6.71 g/m*3 13.6 C 0 km/h
668 07-11-2008 14:06:38 13.8 C 7.03 g/m*3 13.8 C 0 km/h
669 07-11-2008 14:31:38 14.5 C 7.09 g/m*3 14.5 C 0 km/h
670 07-11-2008 14:56:38 14 C 7 g/m*3 14 C 0 km/h
671 07-11-2008 15:21:38 13.8 C 7.27 g/m*3 13.8 C 0 km/h
672 07-11-2008 15:46:39 13.5 C 7.37 g/m*3 13.5 C 0 km/h
673 07-11-2008 16:11:39 13.1 C 7.3 g/m*3 13.1 C 0 km/h
674 07-11-2008 16:36:39 12.7 C 7.57 g/m*3 12.7 C 0 km/h
675 07-11-2008 17:01:39 12.4 C 7.43 g/m*3 12.4 C 0 km/h
Sensor: Nr:Datum:Temp:Abs-Feuchte:Windchill:Wind:
Aussen-T/F 676 07-11-2008 17:26:39 11.8 C 7.26 g/m*3 11.8 C 0 km/h
677 07-11-2008 17:51:39 11.1 C 7.15 g/m*3 11.1 C 0 km/h
678 07-11-2008 18:16:39 10.4 C 7.23 g/m*3 10.4 C 0 km/h
679 07-11-2008 18:41:39 10.4 C 7.42 g/m*3 10.4 C 0 km/h
680 07-11-2008 19:06:39 10.7 C 7.56 g/m*3 10.7 C 0 km/h
681 07-11-2008 19:31:39 10.6 C 7.32 g/m*3 10.6 C 0 km/h
682 07-11-2008 19:56:39 10 C 7.33 g/m*3 10 C 0 km/h
683 07-11-2008 20:21:39 9.9 C 7.56 g/m*3 9.9 C 0 km/h
684 07-11-2008 20:46:39 9.5 C 7.37 g/m*3 9.5 C 0 km/h
685 07-11-2008 21:11:39 9.1 C 7.36 g/m*3 9.1 C 0 km/h
686 07-11-2008 21:36:39 8.7 C 7.44 g/m*3 8.7 C 0 km/h
687 07-11-2008 22:01:39 8.4 C 7.38 g/m*3 8.4 C 0 km/h
688 07-11-2008 22:26:39 7.9 C 7.31 g/m*3 7.9 C 0 km/h
689 07-11-2008 22:51:39 7.5 C 7.12 g/m*3 7.5 C 0 km/h
690 07-11-2008 23:16:39 7.3 C 7.03 g/m*3 7.3 C 0 km/h
691 07-11-2008 23:41:40 7.3 C 7.11 g/m*3 7.3 C 0 km/h
692 08-11-2008 00:06:40 7.3 C 7.19 g/m*3 7.3 C 0 km/h
693 08-11-2008 00:31:40 6.9 C 7.08 g/m*3 6.9 C 0 km/h
694 08-11-2008 00:56:40 7.1 C 7.18 g/m*3 7.1 C 0 km/h
695 08-11-2008 01:21:40 7 C 7.13 g/m*3 7 C 0 km/h
696 08-11-2008 01:46:40 7.2 C 7.3 g/m*3 7.2 C 0 km/h
697 08-11-2008 02:11:40 7.3 C 7.35 g/m*3 7.3 C 0 km/h
698 08-11-2008 02:36:40 7.5 C 7.44 g/m*3 7.5 C 0 km/h
699 08-11-2008 03:01:40 7.8 C 7.59 g/m*3 7.8 C 0 km/h
700 08-11-2008 03:26:40 7.9 C 7.56 g/m*3 7.9 C 0 km/h
Sensor: Nr:Datum:Temp:Abs-Feuchte:Windchill:Wind:
Aussen-T/F 701 08-11-2008 03:51:40 8.1 C 7.57 g/m*3 8.1 C 0 km/h
702 08-11-2008 04:16:40 8.2 C 7.62 g/m*3 8.2 C 0 km/h
703 08-11-2008 04:41:40 8.3 C 7.67 g/m*3 8.3 C 0 km/h
704 08-11-2008 05:06:40 8.3 C 7.59 g/m*3 8.3 C 0 km/h
705 08-11-2008 05:31:40 8 C 7.44 g/m*3 8 C 0 km/h
706 08-11-2008 05:56:40 8.6 C 7.82 g/m*3 8.6 C 0 km/h
707 08-11-2008 06:21:40 8.6 C 7.65 g/m*3 8.6 C 0 km/h
708 08-11-2008 06:46:40 8.5 C 7.6 g/m*3 8.5 C 0 km/h
709 08-11-2008 07:11:40 8.5 C 7.77 g/m*3 8.5 C 0 km/h
710 08-11-2008 07:36:41 8 C 7.52 g/m*3 8 C 0 km/h
711 08-11-2008 08:01:41 7.9 C 7.64 g/m*3 7.9 C 0 km/h
712 08-11-2008 08:26:41 7.3 C 7.27 g/m*3 7.3 C 0 km/h
713 08-11-2008 08:51:41 7.2 C 7.3 g/m*3 7.2 C 0 km/h
714 08-11-2008 09:16:41 7.6 C 7.57 g/m*3 7.6 C 0 km/h
715 08-11-2008 09:41:41 8.2 C 7.87 g/m*3 8.2 C 0 km/h
716 08-11-2008 10:06:41 8.7 C 8.13 g/m*3 8.7 C 0 km/h
717 08-11-2008 10:31:41 8.9 C 7.88 g/m*3 8.9 C 0 km/h
718 08-11-2008 10:56:41 9.3 C 7.28 g/m*3 9.3 C 0 km/h
719 08-11-2008 11:21:41 9.7 C 6.36 g/m*3 9.7 C 0 km/h
720 08-11-2008 11:46:41 10.3 C 6.03 g/m*3 10.3 C 0 km/h
721 08-11-2008 12:11:41 10.9 C 5.97 g/m*3 10.9 C 0 km/h
722 08-11-2008 12:36:41 11.7 C 5.86 g/m*3 11.7 C 0 km/h
723 08-11-2008 13:01:41 12.2 C 5.4 g/m*3 12.2 C 0 km/h
724 08-11-2008 13:26:41 12.4 C 5.14 g/m*3 12.4 C 0 km/h
725 08-11-2008 13:51:01 12 C 5.33 g/m*3 12 C 0 km/h
Sensor: Nr:Datum:Temp:Abs-Feuchte:Windchill:Wind:
Aussen-T/F 726 08-11-2008 14:16:01 11.9 C 5.51 g/m*3 11.9 C 0 km/h
727 08-11-2008 14:41:01 12 C 5.44 g/m*3 12 C 0 km/h
728 08-11-2008 15:06:02 11.8 C 5.79 g/m*3 11.8 C 0 km/h
729 08-11-2008 15:31:02 12 C 5.86 g/m*3 12 C 0 km/h
730 08-11-2008 15:56:02 11.2 C 5.98 g/m*3 11.2 C 0 km/h
731 08-11-2008 16:21:02 10.2 C 5.8 g/m*3 10.2 C 0 km/h
732 08-11-2008 16:46:02 9.5 C 6.01 g/m*3 9.5 C 0 km/h
733 08-11-2008 17:11:02 8.8 C 6.09 g/m*3 8.8 C 0 km/h
734 08-11-2008 17:36:02 8.2 C 6.03 g/m*3 8.2 C 0 km/h
735 08-11-2008 18:01:02 7.7 C 6.08 g/m*3 7.7 C 0 km/h
736 08-11-2008 18:26:01 7.4 C 6.04 g/m*3 7.4 C 0 km/h
737 08-11-2008 18:51:01 7.2 C 6.12 g/m*3 7.2 C 0 km/h
738 08-11-2008 19:16:02 6.8 C 6.12 g/m*3 6.8 C 0 km/h
739 08-11-2008 19:41:02 6.5 C 6.15 g/m*3 6.5 C 0 km/h
740 08-11-2008 20:06:02 6.1 C 5.99 g/m*3 6.1 C 0 km/h
741 08-11-2008 20:31:02 5.8 C 6.02 g/m*3 5.8 C 0 km/h
742 08-11-2008 20:56:02 5.6 C 6.08 g/m*3 5.6 C 0 km/h
743 08-11-2008 21:21:02 5.3 C 5.96 g/m*3 5.3 C 0 km/h
744 08-11-2008 21:46:02 5.2 C 6.06 g/m*3 5.2 C 0 km/h
745 08-11-2008 22:11:03 5.1 C 6.02 g/m*3 5.1 C 0 km/h
746 08-11-2008 22:36:03 4.7 C 6 g/m*3 4.7 C 0 km/h
747 08-11-2008 23:01:02 4.9 C 6.14 g/m*3 4.9 C 0 km/h
748 08-11-2008 23:26:02 5.3 C 6.38 g/m*3 5.3 C 0 km/h
749 08-11-2008 23:50:02 5.8 C 6.66 g/m*3 5.8 C 0 km/h
750 09-11-2008 00:02:03 6.4 C 6.85 g/m*3 6.4 C 0 km/h
Sensor: Nr:Datum:Temp:Abs-Feuchte:Windchill:Wind:
Aussen-T/F 751 09-11-2008 00:14:03 6.7 C 6.84 g/m*3 6.7 C 0 km/h
752 09-11-2008 00:26:03 6.7 C 6.76 g/m*3 6.7 C 0 km/h
753 09-11-2008 00:38:03 7 C 6.74 g/m*3 7 C 0 km/h
754 09-11-2008 00:50:02 7 C 6.59 g/m*3 7 C 0 km/h
755 09-11-2008 01:02:03 6.6 C 6.42 g/m*3 6.6 C 0 km/h
756 09-11-2008 01:14:03 6.7 C 6.53 g/m*3 6.7 C 0 km/h
757 09-11-2008 01:26:02 6.5 C 6.37 g/m*3 6.5 C 0 km/h
758 09-11-2008 01:38:03 6.5 C 6.45 g/m*3 6.5 C 0 km/h
759 09-11-2008 01:50:02 6.4 C 6.41 g/m*3 6.4 C 0 km/h
760 09-11-2008 02:02:01 7.1 C 6.63 g/m*3 7.1 C 0 km/h
761 09-11-2008 02:14:01 7.5 C 6.56 g/m*3 7.5 C 0 km/h
762 09-11-2008 02:26:02 7.3 C 6.4 g/m*3 7.3 C 0 km/h
763 09-11-2008 02:38:01 7.6 C 6.53 g/m*3 7.6 C 0 km/h
764 09-11-2008 02:50:01 7.5 C 6.32 g/m*3 7.5 C 0 km/h
765 09-11-2008 03:02:01 7.7 C 6.49 g/m*3 7.7 C 0 km/h
766 09-11-2008 03:14:02 8 C 6.45 g/m*3 8 C 0 km/h
767 09-11-2008 03:26:02 8 C 6.45 g/m*3 8 C 0 km/h
768 09-11-2008 03:38:01 8.2 C 6.53 g/m*3 8.2 C 0 km/h
769 09-11-2008 03:50:01 8.8 C 6.61 g/m*3 8.8 C 0 km/h
770 09-11-2008 04:02:01 9.3 C 6.56 g/m*3 9.3 C 0 km/h
771 09-11-2008 04:14:01 9.4 C 6.51 g/m*3 9.4 C 0 km/h
772 09-11-2008 04:26:01 9.6 C 6.5 g/m*3 9.6 C 0 km/h
773 09-11-2008 04:38:01 9.3 C 6.47 g/m*3 9.3 C 0 km/h
774 09-11-2008 04:50:02 9.3 C 6.56 g/m*3 9.3 C 0 km/h
775 09-11-2008 05:02:01 9.2 C 6.52 g/m*3 9.2 C 0 km/h
Sensor: Nr:Datum:Temp:Abs-Feuchte:Windchill:Wind:
Aussen-T/F 776 09-11-2008 05:14:01 9.6 C 6.6 g/m*3 9.6 C 0 km/h
777 09-11-2008 05:26:02 9.7 C 6.64 g/m*3 9.7 C 0 km/h
778 09-11-2008 05:38:01 9.7 C 6.64 g/m*3 9.7 C 0 km/h
779 09-11-2008 05:50:02 9.6 C 6.6 g/m*3 9.6 C 0 km/h
780 09-11-2008 06:02:01 9.6 C 6.69 g/m*3 9.6 C 0 km/h
781 09-11-2008 06:14:01 9.6 C 6.6 g/m*3 9.6 C 0 km/h
782 09-11-2008 06:26:02 9.8 C 6.68 g/m*3 9.8 C 0 km/h
783 09-11-2008 06:38:01 9.7 C 6.64 g/m*3 9.7 C 0 km/h
784 09-11-2008 06:50:02 9.7 C 6.64 g/m*3 9.7 C 0 km/h
785 09-11-2008 07:02:01 9.9 C 6.82 g/m*3 9.9 C 0 km/h
786 09-11-2008 07:14:01 10 C 6.77 g/m*3 10 C 0 km/h
787 09-11-2008 07:26:02 9.8 C 6.87 g/m*3 9.8 C 0 km/h
788 09-11-2008 07:38:01 9.4 C 7.15 g/m*3 9.4 C 0 km/h
789 09-11-2008 07:50:01 9.2 C 7.41 g/m*3 9.2 C 0 km/h
790 09-11-2008 08:02:01 9.3 C 7.64 g/m*3 9.3 C 0 km/h
791 09-11-2008 08:14:01 9.1 C 7.72 g/m*3 9.1 C 0 km/h
792 09-11-2008 08:26:01 9.3 C 7.82 g/m*3 9.3 C 0 km/h
793 09-11-2008 08:38:01 9.4 C 7.96 g/m*3 9.4 C 0 km/h
794 09-11-2008 08:50:01 9.4 C 7.96 g/m*3 9.4 C 0 km/h
795 09-11-2008 09:02:02 9.6 C 8.15 g/m*3 9.6 C 0 km/h
796 09-11-2008 09:14:02 9.6 C 8.15 g/m*3 9.6 C 0 km/h
797 09-11-2008 09:26:01 9.7 C 8.2 g/m*3 9.7 C 0 km/h
798 09-11-2008 09:38:01 9.7 C 8.2 g/m*3 9.7 C 0 km/h
799 09-11-2008 09:50:01 9.8 C 8.35 g/m*3 9.8 C 0 km/h
800 09-11-2008 10:02:02 9.7 C 8.3 g/m*3 9.7 C 0 km/h
Sensor: Nr:Datum:Temp:Abs-Feuchte:Windchill:Wind:
Aussen-T/F 801 09-11-2008 10:14:02 9.7 C 8.3 g/m*3 9.7 C 0 km/h
802 09-11-2008 10:26:01 9.7 C 8.39 g/m*3 9.7 C 0 km/h
803 09-11-2008 10:38:02 9.8 C 8.44 g/m*3 9.8 C 0 km/h
804 09-11-2008 10:50:01 9.8 C 8.54 g/m*3 9.8 C 0 km/h
805 09-11-2008 11:02:02 9.8 C 8.54 g/m*3 9.8 C 0 km/h
806 09-11-2008 11:14:02 9.9 C 8.59 g/m*3 9.9 C 0 km/h
807 09-11-2008 11:26:01 10.1 C 8.7 g/m*3 10.1 C 0 km/h
808 09-11-2008 11:38:02 10.3 C 8.81 g/m*3 10.3 C 0 km/h
809 09-11-2008 11:50:02 10.3 C 8.81 g/m*3 10.3 C 0 km/h
810 09-11-2008 12:02:02 10.4 C 8.87 g/m*3 10.4 C 0 km/h
811 09-11-2008 12:14:02 10.7 C 9.04 g/m*3 10.7 C 0 km/h
812 09-11-2008 12:26:02 11 C 9.11 g/m*3 11 C 0 km/h
813 09-11-2008 12:38:02 10.8 C 8.99 g/m*3 10.8 C 0 km/h
814 09-11-2008 12:50:02 10.9 C 9.05 g/m*3 10.9 C 0 km/h
815 09-11-2008 13:02:02 10.6 C 8.69 g/m*3 10.6 C 0 km/h
816 09-11-2008 13:14:02 10.5 C 8.44 g/m*3 10.5 C 0 km/h
817 09-11-2008 13:26:02 10.6 C 8.39 g/m*3 10.6 C 0 km/h
818 09-11-2008 13:38:02 10.3 C 8.24 g/m*3 10.3 C 0 km/h
819 09-11-2008 13:50:02 9.8 C 7.61 g/m*3 9.8 C 0 km/h
820 09-11-2008 14:02:02 9.5 C 7.1 g/m*3 9.5 C 0 km/h
821 09-11-2008 14:14:02 9.7 C 7.19 g/m*3 9.7 C 0 km/h
822 09-11-2008 14:26:01 9.5 C 7.28 g/m*3 9.5 C 0 km/h
823 09-11-2008 14:38:02 9.6 C 7.51 g/m*3 9.6 C 0 km/h
824 09-11-2008 14:50:01 9.7 C 7.56 g/m*3 9.7 C 0 km/h
825 09-11-2008 15:02:01 9.8 C 7.24 g/m*3 9.8 C 0 km/h
Sensor: Nr:Datum:Temp:Abs-Feuchte:Windchill:Wind:
Aussen-T/F 826 09-11-2008 15:14:01 10.1 C 6.9 g/m*3 10.1 C 0 km/h
827 09-11-2008 15:26:02 10 C 6.95 g/m*3 10 C 0 km/h
828 09-11-2008 15:38:02 10.1 C 6.9 g/m*3 10.1 C 0 km/h
829 09-11-2008 15:50:01 9.9 C 7 g/m*3 9.9 C 0 km/h
830 09-11-2008 16:02:03 9.8 C 7.14 g/m*3 9.8 C 0 km/h
831 09-11-2008 16:14:03 9.6 C 7.15 g/m*3 9.6 C 0 km/h
832 09-11-2008 16:26:01 9.4 C 7.15 g/m*3 9.4 C 0 km/h
833 09-11-2008 16:38:02 9.2 C 7.23 g/m*3 9.2 C 0 km/h
834 09-11-2008 16:50:02 9.1 C 7.19 g/m*3 9.1 C 0 km/h
835 09-11-2008 17:02:02 9.1 C 7.19 g/m*3 9.1 C 0 km/h
836 09-11-2008 17:14:02 9 C 7.14 g/m*3 9 C 0 km/h
837 09-11-2008 17:26:02 8.8 C 7.22 g/m*3 8.8 C 0 km/h
838 09-11-2008 17:38:03 8.7 C 7.26 g/m*3 8.7 C 0 km/h
839 09-11-2008 17:50:02 8.7 C 7.26 g/m*3 8.7 C 0 km/h
840 09-11-2008 18:02:02 8.6 C 7.22 g/m*3 8.6 C 0 km/h
841 09-11-2008 18:14:02 8.5 C 7 g/m*3 8.5 C 0 km/h
842 09-11-2008 18:26:02 8.1 C 6.82 g/m*3 8.1 C 0 km/h
843 09-11-2008 18:38:02 7.9 C 6.82 g/m*3 7.9 C 0 km/h
844 09-11-2008 18:50:01 7.8 C 6.77 g/m*3 7.8 C 0 km/h
845 09-11-2008 19:02:02 7.6 C 6.69 g/m*3 7.6 C 0 km/h
846 09-11-2008 19:14:02 7.4 C 6.68 g/m*3 7.4 C 0 km/h
847 09-11-2008 19:26:03 7.4 C 6.76 g/m*3 7.4 C 0 km/h
848 09-11-2008 19:38:03 7.3 C 6.72 g/m*3 7.3 C 0 km/h
849 09-11-2008 19:50:02 7.4 C 6.84 g/m*3 7.4 C 0 km/h
850 09-11-2008 20:02:02 7.5 C 6.8 g/m*3 7.5 C 0 km/h
Sensor: Nr:Datum:Temp:Abs-Feuchte:Windchill:Wind:
Aussen-T/F 851 09-11-2008 20:14:02 7.4 C 6.76 g/m*3 7.4 C 0 km/h
852 09-11-2008 20:26:01 7.6 C 6.93 g/m*3 7.6 C 0 km/h
853 09-11-2008 20:38:02 7.4 C 6.76 g/m*3 7.4 C 0 km/h
854 09-11-2008 20:50:02 7.4 C 6.92 g/m*3 7.4 C 0 km/h
855 09-11-2008 21:02:01 7.6 C 7.01 g/m*3 7.6 C 0 km/h
856 09-11-2008 21:14:01 7.7 C 7.14 g/m*3 7.7 C 0 km/h
857 09-11-2008 21:26:02 7.9 C 7.23 g/m*3 7.9 C 0 km/h
858 09-11-2008 21:38:01 7.9 C 7.23 g/m*3 7.9 C 0 km/h
859 09-11-2008 21:50:02 7.9 C 7.31 g/m*3 7.9 C 0 km/h
860 09-11-2008 22:02:01 7.9 C 7.31 g/m*3 7.9 C 0 km/h
861 09-11-2008 22:14:01 7.8 C 7.35 g/m*3 7.8 C 0 km/h
862 09-11-2008 22:26:02 8 C 7.44 g/m*3 8 C 0 km/h
863 09-11-2008 22:38:01 8.3 C 7.67 g/m*3 8.3 C 0 km/h
864 09-11-2008 22:50:01 8.5 C 7.77 g/m*3 8.5 C 0 km/h
865 09-11-2008 23:02:01 8.5 C 7.77 g/m*3 8.5 C 0 km/h
866 09-11-2008 23:14:01 8.9 C 8.06 g/m*3 8.9 C 0 km/h
867 09-11-2008 23:26:01 9.3 C 8.27 g/m*3 9.3 C 0 km/h
868 09-11-2008 23:38:01 10.1 C 8.7 g/m*3 10.1 C 0 km/h
869 09-11-2008 23:50:01 11.4 C 9.34 g/m*3 11.4 C 0 km/h
870 10-11-2008 00:02:02 12 C 8.95 g/m*3 12 C 0 km/h
871 10-11-2008 00:14:02 12.1 C 8.69 g/m*3 12.1 C 0 km/h
872 10-11-2008 00:26:02 12.3 C 8.58 g/m*3 12.3 C 0 km/h
873 10-11-2008 00:38:02 12.3 C 8.58 g/m*3 12.3 C 0 km/h
874 10-11-2008 00:50:01 12.6 C 8.41 g/m*3 12.6 C 0 km/h
875 10-11-2008 01:02:02 12.9 C 8.34 g/m*3 12.9 C 0 km/h
Sensor: Nr:Datum:Temp:Abs-Feuchte:Windchill:Wind:
Aussen-T/F 876 10-11-2008 01:14:02 13 C 8.05 g/m*3 13 C 0 km/h
877 10-11-2008 01:26:01 13 C 7.94 g/m*3 13 C 0 km/h
878 10-11-2008 01:38:02 13 C 7.83 g/m*3 13 C 0 km/h
879 10-11-2008 01:50:02 13.1 C 7.53 g/m*3 13.1 C 0 km/h
880 10-11-2008 02:02:01 13 C 7.48 g/m*3 13 C 0 km/h
881 10-11-2008 02:14:01 13 C 7.48 g/m*3 13 C 0 km/h
882 10-11-2008 02:26:02 12.9 C 7.55 g/m*3 12.9 C 0 km/h
883 10-11-2008 02:38:01 12.5 C 7.81 g/m*3 12.5 C 0 km/h
884 10-11-2008 02:51:05 12 C 7.99 g/m*3 12 C 0 km/h
885 10-11-2008 03:03:05 11.8 C 8.21 g/m*3 11.8 C 0 km/h
886 10-11-2008 03:15:05 11.2 C 8.51 g/m*3 11.2 C 0 km/h
887 10-11-2008 03:27:05 11.1 C 8.66 g/m*3 11.1 C 0 km/h
888 10-11-2008 03:39:02 11.3 C 8.67 g/m*3 11.3 C 0 km/h
889 10-11-2008 03:51:02 11.6 C 8.52 g/m*3 11.6 C 0 km/h
890 10-11-2008 04:03:03 11.8 C 8.31 g/m*3 11.8 C 0 km/h
891 10-11-2008 04:15:02 11.9 C 8.26 g/m*3 11.9 C 0 km/h
892 10-11-2008 04:27:02 12 C 8.21 g/m*3 12 C 0 km/h
893 10-11-2008 04:39:03 12.3 C 8.25 g/m*3 12.3 C 0 km/h
894 10-11-2008 04:51:02 12.5 C 8.14 g/m*3 12.5 C 0 km/h
895 10-11-2008 05:03:02 12.5 C 8.14 g/m*3 12.5 C 0 km/h
896 10-11-2008 05:15:02 12.6 C 8.08 g/m*3 12.6 C 0 km/h
897 10-11-2008 05:27:02 12.8 C 8.06 g/m*3 12.8 C 0 km/h
898 10-11-2008 05:39:02 12.9 C 8 g/m*3 12.9 C 0 km/h
899 10-11-2008 05:51:01 13 C 7.83 g/m*3 13 C 0 km/h
900 10-11-2008 06:03:02 13 C 7.83 g/m*3 13 C 0 km/h
Sensor: Nr:Datum:Temp:Abs-Feuchte:Windchill:Wind:
Aussen-T/F 901 10-11-2008 06:15:02 13 C 7.83 g/m*3 13 C 0 km/h
902 10-11-2008 06:27:02 13 C 7.83 g/m*3 13 C 0 km/h
903 10-11-2008 06:39:02 13.1 C 7.76 g/m*3 13.1 C 0 km/h
904 10-11-2008 06:51:02 13 C 7.71 g/m*3 13 C 0 km/h
905 10-11-2008 07:03:02 13.1 C 7.76 g/m*3 13.1 C 0 km/h
906 10-11-2008 07:15:02 13.3 C 7.74 g/m*3 13.3 C 0 km/h
907 10-11-2008 07:27:02 13.2 C 7.69 g/m*3 13.2 C 0 km/h
908 10-11-2008 07:39:02 13.1 C 7.87 g/m*3 13.1 C 0 km/h
909 10-11-2008 07:51:02 12.8 C 8.18 g/m*3 12.8 C 0 km/h
910 10-11-2008 08:03:03 12.7 C 8.24 g/m*3 12.7 C 0 km/h
911 10-11-2008 08:15:02 13 C 8.28 g/m*3 13 C 0 km/h
912 10-11-2008 08:27:02 13 C 8.28 g/m*3 13 C 0 km/h
913 10-11-2008 08:39:03 12.8 C 8.4 g/m*3 12.8 C 0 km/h
914 10-11-2008 08:51:02 13 C 8.39 g/m*3 13 C 0 km/h
915 10-11-2008 09:03:01 13 C 8.28 g/m*3 13 C 0 km/h
916 10-11-2008 09:15:02 13 C 8.28 g/m*3 13 C 0 km/h
917 10-11-2008 09:27:03 13.2 C 8.27 g/m*3 13.2 C 0 km/h
918 10-11-2008 09:39:01 13.4 C 8.14 g/m*3 13.4 C 0 km/h
919 10-11-2008 09:51:02 13.5 C 8.07 g/m*3 13.5 C 0 km/h
920 10-11-2008 10:03:01 13.7 C 8.05 g/m*3 13.7 C 0 km/h
921 10-11-2008 10:15:02 13.7 C 7.93 g/m*3 13.7 C 0 km/h
922 10-11-2008 10:27:02 13.7 C 7.93 g/m*3 13.7 C 0 km/h
923 10-11-2008 10:39:01 13.8 C 7.98 g/m*3 13.8 C 0 km/h
924 10-11-2008 10:51:01 14 C 7.96 g/m*3 14 C 0 km/h
925 10-11-2008 11:03:01 14 C 8.08 g/m*3 14 C 0 km/h
Sensor: Nr:Datum:Temp:Abs-Feuchte:Windchill:Wind:
Aussen-T/F 926 10-11-2008 11:15:01 13.8 C 8.22 g/m*3 13.8 C 0 km/h
927 10-11-2008 11:27:01 14 C 8.2 g/m*3 14 C 0 km/h
928 10-11-2008 11:39:01 14.2 C 8.06 g/m*3 14.2 C 0 km/h
929 10-11-2008 11:51:01 14.4 C 8.03 g/m*3 14.4 C 0 km/h
930 10-11-2008 12:03:02 14.7 C 7.93 g/m*3 14.7 C 0 km/h
931 10-11-2008 12:15:02 15.2 C 7.92 g/m*3 15.2 C 0 km/h
932 10-11-2008 12:27:02 15 C 7.82 g/m*3 15 C 0 km/h
933 10-11-2008 12:39:02 15.1 C 7.87 g/m*3 15.1 C 0 km/h
934 10-11-2008 12:51:02 14.9 C 7.9 g/m*3 14.9 C 0 km/h
935 10-11-2008 13:03:01 14.9 C 7.77 g/m*3 14.9 C 0 km/h
936 10-11-2008 13:15:02 15 C 7.69 g/m*3 15 C 0 km/h
937 10-11-2008 13:27:02 14.7 C 7.81 g/m*3 14.7 C 0 km/h
938 10-11-2008 13:39:02 14.8 C 7.85 g/m*3 14.8 C 0 km/h
939 10-11-2008 13:51:02 14.9 C 7.77 g/m*3 14.9 C 0 km/h
940 10-11-2008 14:03:02 15.3 C 7.84 g/m*3 15.3 C 0 km/h
941 10-11-2008 14:15:02 15.3 C 7.57 g/m*3 15.3 C 0 km/h
942 10-11-2008 14:27:02 15.1 C 7.74 g/m*3 15.1 C 0 km/h
943 10-11-2008 14:39:02 15 C 7.82 g/m*3 15 C 0 km/h
944 10-11-2008 14:51:02 14.8 C 7.85 g/m*3 14.8 C 0 km/h
945 10-11-2008 15:03:01 14.8 C 7.73 g/m*3 14.8 C 0 km/h
946 10-11-2008 15:15:02 14.8 C 7.73 g/m*3 14.8 C 0 km/h
947 10-11-2008 15:27:03 14.8 C 7.73 g/m*3 14.8 C 0 km/h
948 10-11-2008 15:39:01 14.9 C 7.77 g/m*3 14.9 C 0 km/h
949 10-11-2008 15:51:03 14.8 C 7.73 g/m*3 14.8 C 0 km/h
950 10-11-2008 16:03:02 14.8 C 7.73 g/m*3 14.8 C 0 km/h
Sensor: Nr:Datum:Temp:Abs-Feuchte:Windchill:Wind:
Aussen-T/F 951 10-11-2008 16:15:03 14.8 C 7.73 g/m*3 14.8 C 0 km/h
952 10-11-2008 16:27:03 14.7 C 7.81 g/m*3 14.7 C 0 km/h
953 10-11-2008 16:39:02 14.6 C 7.76 g/m*3 14.6 C 0 km/h
954 10-11-2008 16:51:02 14.5 C 7.84 g/m*3 14.5 C 0 km/h
955 10-11-2008 17:03:02 14.5 C 7.71 g/m*3 14.5 C 0 km/h
956 10-11-2008 17:15:02 14.6 C 7.63 g/m*3 14.6 C 0 km/h
957 10-11-2008 17:27:02 14.7 C 7.55 g/m*3 14.7 C 0 km/h
958 10-11-2008 17:39:02 14.7 C 7.55 g/m*3 14.7 C 0 km/h
959 10-11-2008 17:51:01 14.9 C 7.65 g/m*3 14.9 C 0 km/h
960 10-11-2008 18:03:02 15.1 C 7.48 g/m*3 15.1 C 0 km/h
961 10-11-2008 18:15:01 15.2 C 7.4 g/m*3 15.2 C 0 km/h
962 10-11-2008 18:27:01 15.2 C 7.4 g/m*3 15.2 C 0 km/h
963 10-11-2008 18:39:02 14.9 C 7.39 g/m*3 14.9 C 0 km/h
964 10-11-2008 18:51:02 15.1 C 7.22 g/m*3 15.1 C 0 km/h
965 10-11-2008 19:03:03 15.1 C 7.1 g/m*3 15.1 C 0 km/h
966 10-11-2008 19:15:02 15.2 C 7.14 g/m*3 15.2 C 0 km/h
967 10-11-2008 19:27:02 15 C 7.05 g/m*3 15 C 0 km/h
968 10-11-2008 19:39:03 15.1 C 7.1 g/m*3 15.1 C 0 km/h
969 10-11-2008 19:51:02 15.2 C 7.14 g/m*3 15.2 C 0 km/h
970 10-11-2008 20:03:02 15.1 C 7.22 g/m*3 15.1 C 0 km/h
971 10-11-2008 20:15:02 15.3 C 7.31 g/m*3 15.3 C 0 km/h
972 10-11-2008 20:27:02 15.3 C 7.31 g/m*3 15.3 C 0 km/h
973 10-11-2008 20:39:02 15.3 C 7.31 g/m*3 15.3 C 0 km/h
974 10-11-2008 20:51:02 15.4 C 7.36 g/m*3 15.4 C 0 km/h
975 10-11-2008 21:03:02 15.5 C 7.53 g/m*3 15.5 C 0 km/h
Sensor: Nr:Datum:Temp:Abs-Feuchte:Windchill:Wind:
Aussen-T/F 976 10-11-2008 21:15:02 15.5 C 7.53 g/m*3 15.5 C 0 km/h
977 10-11-2008 21:27:02 15.6 C 7.58 g/m*3 15.6 C 0 km/h
978 10-11-2008 21:39:02 15.4 C 7.75 g/m*3 15.4 C 0 km/h
979 10-11-2008 21:51:01 15.2 C 8.05 g/m*3 15.2 C 0 km/h
980 10-11-2008 22:03:02 15.3 C 7.97 g/m*3 15.3 C 0 km/h
981 10-11-2008 22:15:02 15.2 C 8.05 g/m*3 15.2 C 0 km/h
982 10-11-2008 22:27:02 15.5 C 7.93 g/m*3 15.5 C 0 km/h
983 10-11-2008 22:39:02 15.7 C 7.63 g/m*3 15.7 C 0 km/h
984 10-11-2008 22:52:02 15.8 C 7.67 g/m*3 15.8 C 0 km/h
985 10-11-2008 23:04:02 15.8 C 7.54 g/m*3 15.8 C 0 km/h
986 10-11-2008 23:16:02 15.9 C 7.58 g/m*3 15.9 C 0 km/h
987 10-11-2008 23:28:02 15.8 C 7.54 g/m*3 15.8 C 0 km/h
988 10-11-2008 23:40:02 15.8 C 7.54 g/m*3 15.8 C 0 km/h
989 10-11-2008 23:52:02 16 C 7.49 g/m*3 16 C 0 km/h
990 11-11-2008 00:04:02 16 C 7.49 g/m*3 16 C 0 km/h
991 11-11-2008 00:16:02 16 C 7.49 g/m*3 16 C 0 km/h
992 11-11-2008 00:28:02 15.8 C 7.67 g/m*3 15.8 C 0 km/h
993 11-11-2008 00:40:02 15.9 C 7.58 g/m*3 15.9 C 0 km/h
994 11-11-2008 00:52:02 16 C 7.49 g/m*3 16 C 0 km/h
995 11-11-2008 01:04:02 16.1 C 7.4 g/m*3 16.1 C 0 km/h
996 11-11-2008 01:16:02 16.1 C 7.4 g/m*3 16.1 C 0 km/h
997 11-11-2008 01:28:02 15.9 C 7.45 g/m*3 15.9 C 0 km/h
998 11-11-2008 01:40:02 15.7 C 7.49 g/m*3 15.7 C 0 km/h
999 11-11-2008 01:52:02 15.7 C 7.49 g/m*3 15.7 C 0 km/h
1000 11-11-2008 02:04:02 15.4 C 7.36 g/m*3 15.4 C 0 km/h
Sensor: Nr:Datum:Temp:Abs-Feuchte:Windchill:Wind:
Aussen-T/F 1001 11-11-2008 02:16:02 15.2 C 7.4 g/m*3 15.2 C 0 km/h
1002 11-11-2008 02:28:02 15.2 C 7.4 g/m*3 15.2 C 0 km/h
1003 11-11-2008 02:40:03 15.3 C 7.31 g/m*3 15.3 C 0 km/h
1004 11-11-2008 02:52:03 15.2 C 7.27 g/m*3 15.2 C 0 km/h
1005 11-11-2008 03:04:03 15.3 C 7.18 g/m*3 15.3 C 0 km/h
1006 11-11-2008 03:16:03 15.1 C 7.1 g/m*3 15.1 C 0 km/h
1007 11-11-2008 03:28:03 14.9 C 7.14 g/m*3 14.9 C 0 km/h
1008 11-11-2008 03:40:03 14.7 C 7.05 g/m*3 14.7 C 0 km/h
1009 11-11-2008 03:52:03 14.6 C 7.01 g/m*3 14.6 C 0 km/h
1010 11-11-2008 04:04:03 14.4 C 6.92 g/m*3 14.4 C 0 km/h
1011 11-11-2008 04:16:03 14.1 C 6.92 g/m*3 14.1 C 0 km/h
1012 11-11-2008 04:28:03 14.1 C 6.92 g/m*3 14.1 C 0 km/h
1013 11-11-2008 04:40:03 14 C 6.88 g/m*3 14 C 0 km/h
1014 11-11-2008 04:52:03 13.6 C 6.94 g/m*3 13.6 C 0 km/h
1015 11-11-2008 05:04:03 13.4 C 6.86 g/m*3 13.4 C 0 km/h
1016 11-11-2008 05:16:03 13.3 C 6.93 g/m*3 13.3 C 0 km/h
1017 11-11-2008 05:28:03 13.4 C 6.97 g/m*3 13.4 C 0 km/h
1018 11-11-2008 05:40:03 13.5 C 6.9 g/m*3 13.5 C 0 km/h
1019 11-11-2008 05:52:03 13.5 C 6.9 g/m*3 13.5 C 0 km/h
1020 11-11-2008 06:04:03 13.4 C 7.09 g/m*3 13.4 C 0 km/h
1021 11-11-2008 06:16:03 13.3 C 7.16 g/m*3 13.3 C 0 km/h
1022 11-11-2008 06:28:03 13 C 7.37 g/m*3 13 C 0 km/h
1023 11-11-2008 06:40:04 12.7 C 7.57 g/m*3 12.7 C 0 km/h
1024 11-11-2008 06:52:04 12.2 C 7.66 g/m*3 12.2 C 0 km/h
1025 11-11-2008 07:04:02 12 C 8.1 g/m*3 12 C 0 km/h
Sensor: Nr:Datum:Temp:Abs-Feuchte:Windchill:Wind:
Aussen-T/F 1026 11-11-2008 07:16:02 12 C 8.21 g/m*3 12 C 0 km/h
1027 11-11-2008 07:28:02 12.1 C 8.26 g/m*3 12.1 C 0 km/h
1028 11-11-2008 07:40:03 13 C 8.17 g/m*3 13 C 0 km/h
1029 11-11-2008 07:52:02 13.3 C 8.09 g/m*3 13.3 C 0 km/h
1030 11-11-2008 08:04:01 13.2 C 8.04 g/m*3 13.2 C 0 km/h
1031 11-11-2008 08:16:02 13.7 C 7.93 g/m*3 13.7 C 0 km/h
1032 11-11-2008 08:28:03 14 C 7.72 g/m*3 14 C 0 km/h
1033 11-11-2008 08:40:01 13.7 C 7.82 g/m*3 13.7 C 0 km/h
1034 11-11-2008 08:52:02 13.8 C 7.98 g/m*3 13.8 C 0 km/h
1035 11-11-2008 09:04:01 13.9 C 8.15 g/m*3 13.9 C 0 km/h
1036 11-11-2008 09:16:02 13.5 C 8.19 g/m*3 13.5 C 0 km/h
1037 11-11-2008 09:28:02 13.5 C 8.42 g/m*3 13.5 C 0 km/h
1038 11-11-2008 09:40:01 13.4 C 8.49 g/m*3 13.4 C 0 km/h
1039 11-11-2008 09:52:02 13.7 C 8.41 g/m*3 13.7 C 0 km/h
1040 11-11-2008 10:04:01 13.8 C 8.22 g/m*3 13.8 C 0 km/h
1041 11-11-2008 10:16:02 13.4 C 7.9 g/m*3 13.4 C 0 km/h
1042 11-11-2008 10:28:02 13.4 C 7.79 g/m*3 13.4 C 0 km/h
1043 11-11-2008 10:40:01 13.4 C 7.56 g/m*3 13.4 C 0 km/h
1044 11-11-2008 10:52:02 13.5 C 7.6 g/m*3 13.5 C 0 km/h
1045 11-11-2008 11:04:01 13.2 C 6.54 g/m*3 13.2 C 0 km/h
1046 11-11-2008 11:16:02 12 C 6.5 g/m*3 12 C 0 km/h
1047 11-11-2008 11:28:02 11.8 C 6.63 g/m*3 11.8 C 0 km/h
1048 11-11-2008 11:40:02 11.6 C 6.55 g/m*3 11.6 C 0 km/h
1049 11-11-2008 11:52:02 11.8 C 6.31 g/m*3 11.8 C 0 km/h
1050 11-11-2008 12:04:01 11.8 C 6.31 g/m*3 11.8 C 0 km/h
Sensor: Nr:Datum:Temp:Abs-Feuchte:Windchill:Wind:
Aussen-T/F 1051 11-11-2008 12:16:02 12 C 6.07 g/m*3 12 C 0 km/h
1052 11-11-2008 12:28:02 12.3 C 5.86 g/m*3 12.3 C 0 km/h
1053 11-11-2008 12:40:01 12.7 C 6.01 g/m*3 12.7 C 0 km/h
1054 11-11-2008 12:52:01 13.1 C 5.93 g/m*3 13.1 C 0 km/h
1055 11-11-2008 13:04:01 13 C 5.56 g/m*3 13 C 0 km/h
1056 11-11-2008 13:16:01 12.9 C 5.75 g/m*3 12.9 C 0 km/h
1057 11-11-2008 13:28:01 13.4 C 5.23 g/m*3 13.4 C 0 km/h
1058 11-11-2008 13:40:01 13.5 C 5.03 g/m*3 13.5 C 0 km/h
1059 11-11-2008 13:52:01 14.1 C 4.73 g/m*3 14.1 C 0 km/h
1060 11-11-2008 14:04:02 13.8 C 4.89 g/m*3 13.8 C 0 km/h
1061 11-11-2008 14:16:01 14.1 C 4.85 g/m*3 14.1 C 0 km/h
1062 11-11-2008 14:28:01 14 C 4.95 g/m*3 14 C 0 km/h
1063 11-11-2008 14:40:02 13.5 C 4.68 g/m*3 13.5 C 0 km/h
1064 11-11-2008 14:52:02 13.1 C 4.56 g/m*3 13.1 C 0 km/h
1065 11-11-2008 15:04:02 13 C 4.54 g/m*3 13 C 0 km/h
1066 11-11-2008 15:16:02 12.8 C 4.7 g/m*3 12.8 C 0 km/h
1067 11-11-2008 15:28:02 12.5 C 4.73 g/m*3 12.5 C 0 km/h
1068 11-11-2008 15:40:02 12.2 C 4.96 g/m*3 12.2 C 0 km/h
1069 11-11-2008 15:52:02 12.1 C 4.93 g/m*3 12.1 C 0 km/h
1070 11-11-2008 16:04:01 12.1 C 4.93 g/m*3 12.1 C 0 km/h
1071 11-11-2008 16:16:02 12.1 C 4.93 g/m*3 12.1 C 0 km/h
1072 11-11-2008 16:28:03 12.1 C 5.15 g/m*3 12.1 C 0 km/h
1073 11-11-2008 16:40:01 12 C 5.12 g/m*3 12 C 0 km/h
1074 11-11-2008 16:52:01 11.9 C 5.08 g/m*3 11.9 C 0 km/h
1075 11-11-2008 17:04:02 11.9 C 4.98 g/m*3 11.9 C 0 km/h
Sensor: Nr:Datum:Temp:Abs-Feuchte:Windchill:Wind:
Aussen-T/F 1076 11-11-2008 17:16:02 11.9 C 4.87 g/m*3 11.9 C 0 km/h
1077 11-11-2008 17:28:03 11.9 C 4.87 g/m*3 11.9 C 0 km/h
1078 11-11-2008 17:40:01 11.7 C 4.92 g/m*3 11.7 C 0 km/h
1079 11-11-2008 17:52:02 11.3 C 4.79 g/m*3 11.3 C 0 km/h
1080 11-11-2008 18:04:01 11.1 C 4.83 g/m*3 11.1 C 0 km/h
1081 11-11-2008 18:16:02 11.3 C 4.79 g/m*3 11.3 C 0 km/h
1082 11-11-2008 18:28:02 11.4 C 4.82 g/m*3 11.4 C 0 km/h
1083 11-11-2008 18:40:01 11.1 C 4.83 g/m*3 11.1 C 0 km/h
1084 11-11-2008 18:52:01 11.2 C 4.87 g/m*3 11.2 C 0 km/h
1085 11-11-2008 19:04:02 11.1 C 4.94 g/m*3 11.1 C 0 km/h
1086 11-11-2008 19:16:01 11.1 C 5.04 g/m*3 11.1 C 0 km/h
1087 11-11-2008 19:28:01 11.1 C 5.14 g/m*3 11.1 C 0 km/h
1088 11-11-2008 19:40:01 11.1 C 5.14 g/m*3 11.1 C 0 km/h
1089 11-11-2008 19:52:01 11.1 C 5.24 g/m*3 11.1 C 0 km/h
1090 11-11-2008 20:04:02 11.1 C 5.24 g/m*3 11.1 C 0 km/h
1091 11-11-2008 20:16:01 11.1 C 5.24 g/m*3 11.1 C 0 km/h
1092 11-11-2008 20:28:01 11 C 5.31 g/m*3 11 C 0 km/h
1093 11-11-2008 20:40:02 11 C 5.41 g/m*3 11 C 0 km/h
1094 11-11-2008 20:52:02 11 C 5.51 g/m*3 11 C 0 km/h
1095 11-11-2008 21:04:02 10.9 C 5.67 g/m*3 10.9 C 0 km/h
1096 11-11-2008 21:16:02 10.8 C 5.63 g/m*3 10.8 C 0 km/h
1097 11-11-2008 21:28:02 10.8 C 5.73 g/m*3 10.8 C 0 km/h
1098 11-11-2008 21:40:02 10.8 C 5.73 g/m*3 10.8 C 0 km/h
1099 11-11-2008 21:52:02 10.8 C 5.73 g/m*3 10.8 C 0 km/h
1100 11-11-2008 22:04:01 10.7 C 5.8 g/m*3 10.7 C 0 km/h
Sensor: Nr:Datum:Temp:Abs-Feuchte:Windchill:Wind:
Aussen-T/F 1101 11-11-2008 22:16:02 10.7 C 5.89 g/m*3 10.7 C 0 km/h
1102 11-11-2008 22:28:02 9.5 C 6.64 g/m*3 9.5 C 0 km/h
1103 11-11-2008 22:40:02 8.9 C 7.1 g/m*3 8.9 C 0 km/h
1104 11-11-2008 22:52:02 8.7 C 7.26 g/m*3 8.7 C 0 km/h
1105 11-11-2008 23:04:01 8.5 C 7.26 g/m*3 8.5 C 0 km/h
1106 11-11-2008 23:16:02 8.4 C 7.21 g/m*3 8.4 C 0 km/h
1107 11-11-2008 23:28:02 8.3 C 7.25 g/m*3 8.3 C 0 km/h
1108 11-11-2008 23:40:01 8.3 C 7.33 g/m*3 8.3 C 0 km/h
1109 11-11-2008 23:52:02 8.3 C 7.33 g/m*3 8.3 C 0 km/h
1110 12-11-2008 00:04:02 8.3 C 7.33 g/m*3 8.3 C 0 km/h
1111 12-11-2008 00:16:03 8.2 C 7.37 g/m*3 8.2 C 0 km/h
1112 12-11-2008 00:28:03 8.1 C 7.32 g/m*3 8.1 C 0 km/h
1113 12-11-2008 00:40:02 8.2 C 7.45 g/m*3 8.2 C 0 km/h
1114 12-11-2008 00:52:01 8.1 C 7.41 g/m*3 8.1 C 0 km/h
1115 12-11-2008 01:04:02 8.3 C 7.5 g/m*3 8.3 C 0 km/h
1116 12-11-2008 01:16:01 8.3 C 7.5 g/m*3 8.3 C 0 km/h
1117 12-11-2008 01:28:01 8.4 C 7.55 g/m*3 8.4 C 0 km/h
1118 12-11-2008 01:40:02 8.5 C 7.51 g/m*3 8.5 C 0 km/h
1119 12-11-2008 01:52:02 8.5 C 7.51 g/m*3 8.5 C 0 km/h
1120 12-11-2008 02:04:02 8.2 C 7.2 g/m*3 8.2 C 0 km/h
1121 12-11-2008 02:16:02 8.1 C 7.16 g/m*3 8.1 C 0 km/h
1122 12-11-2008 02:28:02 8.1 C 7.16 g/m*3 8.1 C 0 km/h
1123 12-11-2008 02:40:02 8 C 7.03 g/m*3 8 C 0 km/h
1124 12-11-2008 02:53:03 8.1 C 6.99 g/m*3 8.1 C 0 km/h
1125 12-11-2008 03:05:04 8 C 6.94 g/m*3 8 C 0 km/h
Sensor: Nr:Datum:Temp:Abs-Feuchte:Windchill:Wind:
Aussen-T/F 1126 12-11-2008 03:17:03 7.6 C 6.85 g/m*3 7.6 C 0 km/h
1127 12-11-2008 03:29:03 7.5 C 6.88 g/m*3 7.5 C 0 km/h
1128 12-11-2008 03:41:01 7.3 C 6.79 g/m*3 7.3 C 0 km/h
1129 12-11-2008 03:53:01 7.1 C 6.79 g/m*3 7.1 C 0 km/h
1130 12-11-2008 04:05:02 7.3 C 6.95 g/m*3 7.3 C 0 km/h
1131 12-11-2008 04:17:02 7.4 C 7 g/m*3 7.4 C 0 km/h
1132 12-11-2008 04:29:02 7.2 C 6.91 g/m*3 7.2 C 0 km/h
1133 12-11-2008 04:41:02 7.5 C 7.04 g/m*3 7.5 C 0 km/h
1134 12-11-2008 04:53:02 7.7 C 7.14 g/m*3 7.7 C 0 km/h
1135 12-11-2008 05:05:02 7.9 C 7.15 g/m*3 7.9 C 0 km/h
1136 12-11-2008 05:17:01 7.9 C 7.15 g/m*3 7.9 C 0 km/h
1137 12-11-2008 05:29:01 7.8 C 7.1 g/m*3 7.8 C 0 km/h
1138 12-11-2008 05:41:02 7.6 C 7.01 g/m*3 7.6 C 0 km/h
1139 12-11-2008 05:53:02 7.4 C 6.92 g/m*3 7.4 C 0 km/h
1140 12-11-2008 06:05:02 7.4 C 6.92 g/m*3 7.4 C 0 km/h
1141 12-11-2008 06:17:02 7.5 C 6.96 g/m*3 7.5 C 0 km/h
1142 12-11-2008 06:29:02 7.8 C 6.94 g/m*3 7.8 C 0 km/h
1143 12-11-2008 06:41:02 8 C 6.7 g/m*3 8 C 0 km/h
1144 12-11-2008 06:53:01 8 C 6.7 g/m*3 8 C 0 km/h
1145 12-11-2008 07:05:02 7.8 C 6.69 g/m*3 7.8 C 0 km/h
1146 12-11-2008 07:17:01 7.5 C 6.56 g/m*3 7.5 C 0 km/h
1147 12-11-2008 07:29:01 7.4 C 6.44 g/m*3 7.4 C 0 km/h
1148 12-11-2008 07:41:01 7.2 C 6.44 g/m*3 7.2 C 0 km/h
1149 12-11-2008 07:53:02 7.6 C 6.69 g/m*3 7.6 C 0 km/h
1150 12-11-2008 08:05:02 7.8 C 6.61 g/m*3 7.8 C 0 km/h
Sensor: Nr:Datum:Temp:Abs-Feuchte:Windchill:Wind:
Aussen-T/F 1151 12-11-2008 08:17:02 7.9 C 6.49 g/m*3 7.9 C 0 km/h
1152 12-11-2008 08:29:02 8 C 6.45 g/m*3 8 C 0 km/h
1153 12-11-2008 08:41:02 8.1 C 6.41 g/m*3 8.1 C 0 km/h
1154 12-11-2008 08:53:02 7.9 C 6.49 g/m*3 7.9 C 0 km/h
1155 12-11-2008 09:05:02 7.8 C 6.45 g/m*3 7.8 C 0 km/h
1156 12-11-2008 09:17:02 7.6 C 6.44 g/m*3 7.6 C 0 km/h
1157 12-11-2008 09:29:02 7.7 C 6.57 g/m*3 7.7 C 0 km/h
1158 12-11-2008 09:41:02 8.2 C 6.7 g/m*3 8.2 C 0 km/h
1159 12-11-2008 09:53:02 8.2 C 6.53 g/m*3 8.2 C 0 km/h
1160 12-11-2008 10:05:01 8.2 C 6.53 g/m*3 8.2 C 0 km/h
1161 12-11-2008 10:17:02 8.9 C 6.57 g/m*3 8.9 C 0 km/h
1162 12-11-2008 10:29:02 9.3 C 6.38 g/m*3 9.3 C 0 km/h
1163 12-11-2008 10:41:01 9.4 C 6.15 g/m*3 9.4 C 0 km/h
1164 12-11-2008 10:53:02 9.6 C 6.32 g/m*3 9.6 C 0 km/h
1165 12-11-2008 11:05:01 9.8 C 6.31 g/m*3 9.8 C 0 km/h
1166 12-11-2008 11:17:02 10.2 C 6.38 g/m*3 10.2 C 0 km/h
1167 12-11-2008 11:29:02 10.7 C 6.48 g/m*3 10.7 C 0 km/h
1168 12-11-2008 11:41:01 10.6 C 6.44 g/m*3 10.6 C 0 km/h
1169 12-11-2008 11:53:01 9.9 C 6.63 g/m*3 9.9 C 0 km/h
1170 12-11-2008 12:05:01 10.4 C 6.84 g/m*3 10.4 C 0 km/h
1171 12-11-2008 12:17:02 10.5 C 6.89 g/m*3 10.5 C 0 km/h
1172 12-11-2008 12:29:02 10.4 C 6.65 g/m*3 10.4 C 0 km/h
1173 12-11-2008 12:41:01 10.9 C 6.76 g/m*3 10.9 C 0 km/h
1174 12-11-2008 12:53:01 11.2 C 6.39 g/m*3 11.2 C 0 km/h
1175 12-11-2008 13:05:01 11.8 C 6.31 g/m*3 11.8 C 0 km/h
Sensor: Nr:Datum:Temp:Abs-Feuchte:Windchill:Wind:
Aussen-T/F 1176 12-11-2008 13:17:01 11.7 C 6.38 g/m*3 11.7 C 0 km/h
1177 12-11-2008 13:29:01 11.1 C 6.04 g/m*3 11.1 C 0 km/h
1178 12-11-2008 13:41:01 11.5 C 6.09 g/m*3 11.5 C 0 km/h
1179 12-11-2008 13:53:01 11.5 C 5.89 g/m*3 11.5 C 0 km/h
1180 12-11-2008 14:05:02 11.2 C 5.88 g/m*3 11.2 C 0 km/h
1181 12-11-2008 14:17:01 11.9 C 5.93 g/m*3 11.9 C 0 km/h
1182 12-11-2008 14:29:01 11.7 C 5.75 g/m*3 11.7 C 0 km/h
1183 12-11-2008 14:41:02 11.2 C 5.78 g/m*3 11.2 C 0 km/h
1184 12-11-2008 14:53:02 10.9 C 5.97 g/m*3 10.9 C 0 km/h
1185 12-11-2008 15:05:02 12 C 5.97 g/m*3 12 C 0 km/h
1186 12-11-2008 15:17:01 12.3 C 5.86 g/m*3 12.3 C 0 km/h
1187 12-11-2008 15:29:01 11.8 C 5.79 g/m*3 11.8 C 0 km/h
1188 12-11-2008 15:41:02 11.1 C 5.84 g/m*3 11.1 C 0 km/h
1189 12-11-2008 15:53:02 10.7 C 5.89 g/m*3 10.7 C 0 km/h
1190 12-11-2008 16:05:02 10.8 C 5.93 g/m*3 10.8 C 0 km/h
1191 12-11-2008 16:17:02 10.8 C 5.93 g/m*3 10.8 C 0 km/h
1192 12-11-2008 16:29:02 10.4 C 5.88 g/m*3 10.4 C 0 km/h
1193 12-11-2008 16:41:02 9.9 C 5.98 g/m*3 9.9 C 0 km/h
1194 12-11-2008 16:53:02 9.6 C 5.95 g/m*3 9.6 C 0 km/h
1195 12-11-2008 17:05:01 9.5 C 6.01 g/m*3 9.5 C 0 km/h
1196 12-11-2008 17:17:02 9.2 C 6.07 g/m*3 9.2 C 0 km/h
1197 12-11-2008 17:29:02 8.7 C 6.05 g/m*3 8.7 C 0 km/h
1198 12-11-2008 17:41:01 8.3 C 5.98 g/m*3 8.3 C 0 km/h
1199 12-11-2008 17:53:03 8.1 C 6.07 g/m*3 8.1 C 0 km/h
1200 12-11-2008 18:05:02 7.8 C 6.04 g/m*3 7.8 C 0 km/h
Sensor: Nr:Datum:Temp:Abs-Feuchte:Windchill:Wind:
Aussen-T/F 1201 12-11-2008 18:17:02 7.8 C 6.2 g/m*3 7.8 C 0 km/h
1202 12-11-2008 18:29:02 7.6 C 6.2 g/m*3 7.6 C 0 km/h
1203 12-11-2008 18:41:02 7.6 C 6.2 g/m*3 7.6 C 0 km/h
1204 12-11-2008 18:53:03 7.8 C 6.28 g/m*3 7.8 C 0 km/h
1205 12-11-2008 19:05:02 7.7 C 6.24 g/m*3 7.7 C 0 km/h
1206 12-11-2008 19:17:02 7.6 C 6.2 g/m*3 7.6 C 0 km/h
1207 12-11-2008 19:29:02 7.8 C 6.37 g/m*3 7.8 C 0 km/h
1208 12-11-2008 19:41:02 7.7 C 6.32 g/m*3 7.7 C 0 km/h
1209 12-11-2008 19:53:02 7.8 C 6.45 g/m*3 7.8 C 0 km/h
1210 12-11-2008 20:05:01 7.9 C 6.41 g/m*3 7.9 C 0 km/h
1211 12-11-2008 20:17:02 7.9 C 6.41 g/m*3 7.9 C 0 km/h
1212 12-11-2008 20:29:02 7.8 C 6.45 g/m*3 7.8 C 0 km/h
1213 12-11-2008 20:41:01 7.7 C 6.41 g/m*3 7.7 C 0 km/h
1214 12-11-2008 20:53:02 7.4 C 6.28 g/m*3 7.4 C 0 km/h
1215 12-11-2008 21:05:01 7.1 C 6.24 g/m*3 7.1 C 0 km/h
1216 12-11-2008 21:17:02 7.1 C 6.32 g/m*3 7.1 C 0 km/h
1217 12-11-2008 21:29:02 7.1 C 6.32 g/m*3 7.1 C 0 km/h
1218 12-11-2008 21:41:01 7.1 C 6.32 g/m*3 7.1 C 0 km/h
1219 12-11-2008 21:53:01 7.1 C 6.4 g/m*3 7.1 C 0 km/h
1220 12-11-2008 22:05:02 7.2 C 6.44 g/m*3 7.2 C 0 km/h
1221 12-11-2008 22:17:02 7.1 C 6.32 g/m*3 7.1 C 0 km/h
1222 12-11-2008 22:29:02 6.8 C 6.27 g/m*3 6.8 C 0 km/h
1223 12-11-2008 22:41:01 6.3 C 6.14 g/m*3 6.3 C 0 km/h
1224 12-11-2008 22:53:01 6.2 C 6.18 g/m*3 6.2 C 0 km/h
1225 12-11-2008 23:05:02 6 C 6.1 g/m*3 6 C 0 km/h
Sensor: Nr:Datum:Temp:Abs-Feuchte:Windchill:Wind:
Aussen-T/F 1226 12-11-2008 23:17:01 5.7 C 6.05 g/m*3 5.7 C 0 km/h
1227 12-11-2008 23:29:01 5.5 C 6.04 g/m*3 5.5 C 0 km/h
1228 12-11-2008 23:41:02 5.2 C 5.92 g/m*3 5.2 C 0 km/h
1229 12-11-2008 23:53:02 5 C 5.84 g/m*3 5 C 0 km/h
1230 13-11-2008 00:05:02 5 C 5.91 g/m*3 5 C 0 km/h
1231 13-11-2008 00:17:02 4.8 C 5.9 g/m*3 4.8 C 0 km/h
1232 13-11-2008 00:29:02 4.7 C 5.93 g/m*3 4.7 C 0 km/h
1233 13-11-2008 00:41:02 4.8 C 6.04 g/m*3 4.8 C 0 km/h
1234 13-11-2008 00:53:02 4.8 C 6.04 g/m*3 4.8 C 0 km/h
1235 13-11-2008 01:05:02 4.7 C 6.06 g/m*3 4.7 C 0 km/h
1236 13-11-2008 01:17:02 4.9 C 6.21 g/m*3 4.9 C 0 km/h
1237 13-11-2008 01:29:02 4.8 C 6.17 g/m*3 4.8 C 0 km/h
1238 13-11-2008 01:41:02 4.7 C 6.06 g/m*3 4.7 C 0 km/h
1239 13-11-2008 01:53:02 4.5 C 5.98 g/m*3 4.5 C 0 km/h
1240 13-11-2008 02:05:03 4.2 C 5.86 g/m*3 4.2 C 0 km/h
1241 13-11-2008 02:17:02 4 C 5.79 g/m*3 4 C 0 km/h
1242 13-11-2008 02:29:02 3.7 C 5.8 g/m*3 3.7 C 0 km/h
1243 13-11-2008 02:41:03 3.7 C 5.8 g/m*3 3.7 C 0 km/h
1244 13-11-2008 02:53:01 3.6 C 5.82 g/m*3 3.6 C 0 km/h
1245 13-11-2008 03:05:01 3.6 C 5.82 g/m*3 3.6 C 0 km/h
1246 13-11-2008 03:17:02 3.6 C 5.88 g/m*3 3.6 C 0 km/h
1247 13-11-2008 03:29:02 3.7 C 5.92 g/m*3 3.7 C 0 km/h
1248 13-11-2008 03:41:02 3.6 C 5.88 g/m*3 3.6 C 0 km/h
1249 13-11-2008 03:53:02 3.5 C 5.84 g/m*3 3.5 C 0 km/h
1250 13-11-2008 04:05:01 3.8 C 5.96 g/m*3 3.8 C 0 km/h
Sensor: Nr:Datum:Temp:Abs-Feuchte:Windchill:Wind:
Aussen-T/F 1251 13-11-2008 04:17:02 3.9 C 6 g/m*3 3.9 C 0 km/h
1252 13-11-2008 04:29:02 3.8 C 5.96 g/m*3 3.8 C 0 km/h
1253 13-11-2008 04:41:01 4 C 6.04 g/m*3 4 C 0 km/h
1254 13-11-2008 04:53:02 4.2 C 6.06 g/m*3 4.2 C 0 km/h
1255 13-11-2008 05:05:01 4.3 C 6.1 g/m*3 4.3 C 0 km/h
1256 13-11-2008 05:17:02 4.5 C 6.18 g/m*3 4.5 C 0 km/h
1257 13-11-2008 05:29:02 4.5 C 6.11 g/m*3 4.5 C 0 km/h
1258 13-11-2008 05:41:01 4.6 C 6.15 g/m*3 4.6 C 0 km/h
1259 13-11-2008 05:53:02 4.8 C 6.17 g/m*3 4.8 C 0 km/h
1260 13-11-2008 06:05:01 4.7 C 6.13 g/m*3 4.7 C 0 km/h
1261 13-11-2008 06:17:02 4.7 C 6.13 g/m*3 4.7 C 0 km/h
1262 13-11-2008 06:29:02 4.8 C 6.17 g/m*3 4.8 C 0 km/h
1263 13-11-2008 06:41:01 4.8 C 6.17 g/m*3 4.8 C 0 km/h
1264 13-11-2008 06:53:01 4.8 C 6.17 g/m*3 4.8 C 0 km/h
1265 13-11-2008 07:05:01 4.8 C 6.1 g/m*3 4.8 C 0 km/h
1266 13-11-2008 07:17:02 4.8 C 6.1 g/m*3 4.8 C 0 km/h
1267 13-11-2008 07:29:02 5 C 6.18 g/m*3 5 C 0 km/h
1268 13-11-2008 07:41:01 5.1 C 6.22 g/m*3 5.1 C 0 km/h
1269 13-11-2008 07:53:01 5.1 C 6.16 g/m*3 5.1 C 0 km/h
1270 13-11-2008 08:05:05 5 C 6.12 g/m*3 5 C 0 km/h
1271 13-11-2008 08:17:02 5.1 C 6.16 g/m*3 5.1 C 0 km/h
1272 13-11-2008 08:29:02 5.3 C 6.24 g/m*3 5.3 C 0 km/h
1273 13-11-2008 08:41:01 5.4 C 6.28 g/m*3 5.4 C 0 km/h
1274 13-11-2008 08:53:01 5.6 C 6.36 g/m*3 5.6 C 0 km/h
1275 13-11-2008 09:05:01 5.7 C 6.33 g/m*3 5.7 C 0 km/h
Sensor: Nr:Datum:Temp:Abs-Feuchte:Windchill:Wind:
Aussen-T/F 1276 13-11-2008 09:17:02 5.8 C 6.3 g/m*3 5.8 C 0 km/h
1277 13-11-2008 09:29:02 6 C 6.31 g/m*3 6 C 0 km/h
1278 13-11-2008 09:41:01 6.3 C 6.37 g/m*3 6.3 C 0 km/h
1279 13-11-2008 09:53:01 6.6 C 6.49 g/m*3 6.6 C 0 km/h
1280 13-11-2008 10:05:02 6.9 C 6.54 g/m*3 6.9 C 0 km/h
1281 13-11-2008 10:17:01 7 C 6.35 g/m*3 7 C 0 km/h
1282 13-11-2008 10:29:01 7.2 C 6.2 g/m*3 7.2 C 0 km/h
1283 13-11-2008 10:41:02 7.3 C 6.24 g/m*3 7.3 C 0 km/h
1284 13-11-2008 10:53:01 7.1 C 6.16 g/m*3 7.1 C 0 km/h
1285 13-11-2008 11:05:02 7 C 6.12 g/m*3 7 C 0 km/h
1286 13-11-2008 11:17:01 7.5 C 6.32 g/m*3 7.5 C 0 km/h
1287 13-11-2008 11:29:01 8.1 C 6.24 g/m*3 8.1 C 0 km/h
1288 13-11-2008 11:41:02 8.3 C 6.15 g/m*3 8.3 C 0 km/h
1289 13-11-2008 11:53:01 8.7 C 6.23 g/m*3 8.7 C 0 km/h
1290 13-11-2008 12:05:02 8.6 C 6.1 g/m*3 8.6 C 0 km/h
1291 13-11-2008 12:17:02 8.8 C 6.18 g/m*3 8.8 C 0 km/h
1292 13-11-2008 12:29:02 9 C 6.08 g/m*3 9 C 0 km/h
1293 13-11-2008 12:41:02 9.2 C 6.07 g/m*3 9.2 C 0 km/h
1294 13-11-2008 12:53:01 9.3 C 6.02 g/m*3 9.3 C 0 km/h
1295 13-11-2008 13:05:02 9.4 C 5.97 g/m*3 9.4 C 0 km/h
1296 13-11-2008 13:17:01 9.5 C 5.92 g/m*3 9.5 C 0 km/h
1297 13-11-2008 13:29:01 9.6 C 5.95 g/m*3 9.6 C 0 km/h
1298 13-11-2008 13:41:02 9.6 C 5.86 g/m*3 9.6 C 0 km/h
1299 13-11-2008 13:53:01 9.8 C 5.85 g/m*3 9.8 C 0 km/h
1300 13-11-2008 14:05:02 9.9 C 5.79 g/m*3 9.9 C 0 km/h
Sensor: Nr:Datum:Temp:Abs-Feuchte:Windchill:Wind:
Aussen-T/F 1301 13-11-2008 14:17:01 9.9 C 5.79 g/m*3 9.9 C 0 km/h
1302 13-11-2008 14:29:01 10 C 5.83 g/m*3 10 C 0 km/h
1303 13-11-2008 14:41:02 10 C 5.83 g/m*3 10 C 0 km/h
1304 13-11-2008 14:53:01 10 C 5.83 g/m*3 10 C 0 km/h
1305 13-11-2008 15:05:01 9.8 C 5.85 g/m*3 9.8 C 0 km/h
1306 13-11-2008 15:17:01 9.8 C 5.94 g/m*3 9.8 C 0 km/h
1307 13-11-2008 15:29:01 9.8 C 5.94 g/m*3 9.8 C 0 km/h
1308 13-11-2008 15:41:02 9.7 C 5.9 g/m*3 9.7 C 0 km/h
1309 13-11-2008 15:53:02 9.6 C 5.95 g/m*3 9.6 C 0 km/h
1310 13-11-2008 16:05:01 9.5 C 5.92 g/m*3 9.5 C 0 km/h
1311 13-11-2008 16:17:02 9.4 C 6.06 g/m*3 9.4 C 0 km/h
1312 13-11-2008 16:29:02 9.2 C 6.16 g/m*3 9.2 C 0 km/h
1313 13-11-2008 16:41:01 8.9 C 6.22 g/m*3 8.9 C 0 km/h
1314 13-11-2008 16:53:01 8.7 C 6.23 g/m*3 8.7 C 0 km/h
1315 13-11-2008 17:05:01 8.5 C 6.23 g/m*3 8.5 C 0 km/h
1316 13-11-2008 17:17:01 8.4 C 6.28 g/m*3 8.4 C 0 km/h
1317 13-11-2008 17:29:01 8.2 C 6.28 g/m*3 8.2 C 0 km/h
1318 13-11-2008 17:41:01 8.2 C 6.2 g/m*3 8.2 C 0 km/h
1319 13-11-2008 17:53:01 8.1 C 6.16 g/m*3 8.1 C 0 km/h
1320 13-11-2008 18:05:02 8.1 C 6.16 g/m*3 8.1 C 0 km/h
1321 13-11-2008 18:17:01 7.9 C 6.08 g/m*3 7.9 C 0 km/h
1322 13-11-2008 18:29:01 7.7 C 6 g/m*3 7.7 C 0 km/h
1323 13-11-2008 18:41:02 7.7 C 6 g/m*3 7.7 C 0 km/h
1324 13-11-2008 18:53:01 7.6 C 6.04 g/m*3 7.6 C 0 km/h
1325 13-11-2008 19:05:02 7.7 C 6.08 g/m*3 7.7 C 0 km/h
Sensor: Nr:Datum:Temp:Abs-Feuchte:Windchill:Wind:
Aussen-T/F 1326 13-11-2008 19:17:01 7.6 C 6.04 g/m*3 7.6 C 0 km/h
1327 13-11-2008 19:29:01 7.5 C 6 g/m*3 7.5 C 0 km/h
1328 13-11-2008 19:41:02 7.3 C 5.93 g/m*3 7.3 C 0 km/h
1329 13-11-2008 19:53:02 7.3 C 6 g/m*3 7.3 C 0 km/h
1330 13-11-2008 20:05:01 7.1 C 5.93 g/m*3 7.1 C 0 km/h
1331 13-11-2008 20:17:01 7.1 C 6.01 g/m*3 7.1 C 0 km/h
1332 13-11-2008 20:29:01 7 C 5.97 g/m*3 7 C 0 km/h
1333 13-11-2008 20:41:01 6.9 C 6 g/m*3 6.9 C 0 km/h
1334 13-11-2008 20:53:02 6.5 C 5.85 g/m*3 6.5 C 0 km/h
1335 13-11-2008 21:05:01 6.1 C 5.7 g/m*3 6.1 C 0 km/h
1336 13-11-2008 21:17:02 5.9 C 5.77 g/m*3 5.9 C 0 km/h
1337 13-11-2008 21:29:02 5.8 C 5.73 g/m*3 5.8 C 0 km/h
1338 13-11-2008 21:41:01 5.6 C 5.73 g/m*3 5.6 C 0 km/h
1339 13-11-2008 21:53:01 5.4 C 5.65 g/m*3 5.4 C 0 km/h
1340 13-11-2008 22:05:02 5.1 C 5.61 g/m*3 5.1 C 0 km/h
1341 13-11-2008 22:17:01 4.8 C 5.63 g/m*3 4.8 C 0 km/h
1342 13-11-2008 22:29:01 4.6 C 5.56 g/m*3 4.6 C 0 km/h
1343 13-11-2008 22:41:02 4.4 C 5.55 g/m*3 4.4 C 0 km/h
1344 13-11-2008 22:53:01 4.3 C 5.51 g/m*3 4.3 C 0 km/h
1345 13-11-2008 23:05:01 4.4 C 5.62 g/m*3 4.4 C 0 km/h
1346 13-11-2008 23:17:02 4.2 C 5.61 g/m*3 4.2 C 0 km/h
1347 13-11-2008 23:29:02 3.8 C 5.46 g/m*3 3.8 C 0 km/h
1348 13-11-2008 23:41:02 3.7 C 5.48 g/m*3 3.7 C 0 km/h
1349 13-11-2008 23:53:01 3.5 C 5.41 g/m*3 3.5 C 0 km/h
1350 14-11-2008 00:05:02 3.5 C 5.47 g/m*3 3.5 C 0 km/h
Sensor: Nr:Datum:Temp:Abs-Feuchte:Windchill:Wind:
Aussen-T/F 1351 14-11-2008 00:17:02 3.5 C 5.47 g/m*3 3.5 C 0 km/h
1352 14-11-2008 00:29:02 3.6 C 5.57 g/m*3 3.6 C 0 km/h
1353 14-11-2008 00:41:02 3.6 C 5.57 g/m*3 3.6 C 0 km/h
1354 14-11-2008 00:53:02 3.4 C 5.5 g/m*3 3.4 C 0 km/h
1355 14-11-2008 01:05:02 3.1 C 5.39 g/m*3 3.1 C 0 km/h
1356 14-11-2008 01:17:02 2.7 C 5.24 g/m*3 2.7 C 0 km/h
1357 14-11-2008 01:29:02 2.6 C 5.27 g/m*3 2.6 C 0 km/h
1358 14-11-2008 01:41:01 2.6 C 5.27 g/m*3 2.6 C 0 km/h
1359 14-11-2008 01:53:01 2.5 C 5.23 g/m*3 2.5 C 0 km/h
1360 14-11-2008 02:05:01 2.2 C 5.13 g/m*3 2.2 C 0 km/h
1361 14-11-2008 02:17:01 2.2 C 5.13 g/m*3 2.2 C 0 km/h
1362 14-11-2008 02:29:01 2.1 C 5.09 g/m*3 2.1 C 0 km/h
1363 14-11-2008 02:41:01 2.5 C 5.29 g/m*3 2.5 C 0 km/h
1364 14-11-2008 02:54:06 2.3 C 5.22 g/m*3 2.3 C 0 km/h
1365 14-11-2008 03:06:06 2.5 C 5.29 g/m*3 2.5 C 0 km/h
1366 14-11-2008 03:18:07 2.3 C 5.22 g/m*3 2.3 C 0 km/h
1367 14-11-2008 03:30:07 2 C 5.11 g/m*3 2 C 0 km/h
1368 14-11-2008 03:42:02 1.9 C 5.13 g/m*3 1.9 C 0 km/h
1369 14-11-2008 03:54:02 1.7 C 5.06 g/m*3 1.7 C 0 km/h
1370 14-11-2008 04:06:02 1.9 C 5.19 g/m*3 1.9 C 0 km/h
1371 14-11-2008 04:18:02 1.8 C 5.15 g/m*3 1.8 C 0 km/h
1372 14-11-2008 04:30:02 1.9 C 5.19 g/m*3 1.9 C 0 km/h
1373 14-11-2008 04:42:02 2 C 5.22 g/m*3 2 C 0 km/h
1374 14-11-2008 04:54:02 2 C 5.22 g/m*3 2 C 0 km/h
1375 14-11-2008 05:06:02 2 C 5.28 g/m*3 2 C 0 km/h
Sensor: Nr:Datum:Temp:Abs-Feuchte:Windchill:Wind:
Aussen-T/F 1376 14-11-2008 05:18:02 2.1 C 5.31 g/m*3 2.1 C 0 km/h
1377 14-11-2008 05:30:02 2.2 C 5.35 g/m*3 2.2 C 0 km/h
1378 14-11-2008 05:42:02 2.2 C 5.35 g/m*3 2.2 C 0 km/h
1379 14-11-2008 05:54:01 2.2 C 5.35 g/m*3 2.2 C 0 km/h
1380 14-11-2008 06:06:02 2.3 C 5.39 g/m*3 2.3 C 0 km/h
1381 14-11-2008 06:18:02 2.2 C 5.29 g/m*3 2.2 C 0 km/h
1382 14-11-2008 06:30:02 2.1 C 5.26 g/m*3 2.1 C 0 km/h
1383 14-11-2008 06:42:01 2 C 5.22 g/m*3 2 C 0 km/h
1384 14-11-2008 06:54:01 1.8 C 5.15 g/m*3 1.8 C 0 km/h
1385 14-11-2008 07:06:02 1.7 C 5.06 g/m*3 1.7 C 0 km/h
1386 14-11-2008 07:18:02 1.5 C 4.99 g/m*3 1.5 C 0 km/h
1387 14-11-2008 07:30:02 1.4 C 4.91 g/m*3 1.4 C 0 km/h
1388 14-11-2008 07:42:02 1.6 C 5.03 g/m*3 1.6 C 0 km/h
1389 14-11-2008 07:54:02 1.9 C 5.13 g/m*3 1.9 C 0 km/h
1390 14-11-2008 08:06:02 2 C 5.11 g/m*3 2 C 0 km/h
1391 14-11-2008 08:18:01 2.2 C 5.18 g/m*3 2.2 C 0 km/h
1392 14-11-2008 08:30:01 2.1 C 5.09 g/m*3 2.1 C 0 km/h
1393 14-11-2008 08:42:02 2.2 C 5.13 g/m*3 2.2 C 0 km/h
1394 14-11-2008 08:54:02 2.5 C 5.17 g/m*3 2.5 C 0 km/h
1395 14-11-2008 09:06:02 2.9 C 5.26 g/m*3 2.9 C 0 km/h
1396 14-11-2008 09:18:02 3.3 C 5.34 g/m*3 3.3 C 0 km/h
1397 14-11-2008 09:30:02 3.6 C 5.45 g/m*3 3.6 C 0 km/h
1398 14-11-2008 09:42:02 3.9 C 5.49 g/m*3 3.9 C 0 km/h
1399 14-11-2008 09:54:02 4.2 C 5.48 g/m*3 4.2 C 0 km/h
1400 14-11-2008 10:06:01 4.5 C 5.52 g/m*3 4.5 C 0 km/h
Sensor: Nr:Datum:Temp:Abs-Feuchte:Windchill:Wind:
Aussen-T/F 1401 14-11-2008 10:18:02 4.7 C 5.53 g/m*3 4.7 C 0 km/h
1402 14-11-2008 10:30:02 4.6 C 5.29 g/m*3 4.6 C 0 km/h
1403 14-11-2008 10:42:01 5.1 C 5.27 g/m*3 5.1 C 0 km/h
1404 14-11-2008 10:54:03 5.6 C 5.16 g/m*3 5.6 C 0 km/h
1405 14-11-2008 11:06:02 5.7 C 5.12 g/m*3 5.7 C 0 km/h
1406 14-11-2008 11:18:02 6 C 5.23 g/m*3 6 C 0 km/h
1407 14-11-2008 11:30:02 6.8 C 4.97 g/m*3 6.8 C 0 km/h
1408 14-11-2008 11:42:02 7.5 C 4.72 g/m*3 7.5 C 0 km/h
1409 14-11-2008 11:54:02 8.2 C 4.61 g/m*3 8.2 C 0 km/h
1410 14-11-2008 12:06:02 8.8 C 4.44 g/m*3 8.8 C 0 km/h
1411 14-11-2008 12:18:02 9 C 4.32 g/m*3 9 C 0 km/h
1412 14-11-2008 12:30:02 9 C 4.32 g/m*3 9 C 0 km/h
1413 14-11-2008 12:42:02 8.9 C 4.38 g/m*3 8.9 C 0 km/h
1414 14-11-2008 12:54:02 9 C 4.41 g/m*3 9 C 0 km/h
1415 14-11-2008 13:06:02 8.9 C 4.38 g/m*3 8.9 C 0 km/h
1416 14-11-2008 13:18:02 9.1 C 4.35 g/m*3 9.1 C 0 km/h
1417 14-11-2008 13:30:02 9.1 C 4.35 g/m*3 9.1 C 0 km/h
1418 14-11-2008 13:42:02 8.9 C 4.38 g/m*3 8.9 C 0 km/h
1419 14-11-2008 13:54:01 8.8 C 4.44 g/m*3 8.8 C 0 km/h
1420 14-11-2008 14:06:02 8.8 C 4.61 g/m*3 8.8 C 0 km/h
1421 14-11-2008 14:18:02 8.7 C 4.84 g/m*3 8.7 C 0 km/h
1422 14-11-2008 14:30:02 8.6 C 4.81 g/m*3 8.6 C 0 km/h
1423 14-11-2008 14:42:02 8.5 C 4.87 g/m*3 8.5 C 0 km/h
1424 14-11-2008 14:54:02 8.5 C 4.95 g/m*3 8.5 C 0 km/h
1425 14-11-2008 15:06:02 8.2 C 5.19 g/m*3 8.2 C 0 km/h
Sensor: Nr:Datum:Temp:Abs-Feuchte:Windchill:Wind:
Aussen-T/F 1426 14-11-2008 15:18:01 7.9 C 5.5 g/m*3 7.9 C 0 km/h
1427 14-11-2008 15:30:01 7.8 C 5.63 g/m*3 7.8 C 0 km/h
1428 14-11-2008 15:42:02 7.6 C 5.64 g/m*3 7.6 C 0 km/h
1429 14-11-2008 15:54:02 7.5 C 5.76 g/m*3 7.5 C 0 km/h
1430 14-11-2008 16:06:02 7.8 C 5.79 g/m*3 7.8 C 0 km/h
1431 14-11-2008 16:18:02 7.9 C 5.83 g/m*3 7.9 C 0 km/h
1432 14-11-2008 16:30:02 8 C 5.87 g/m*3 8 C 0 km/h
1433 14-11-2008 16:42:02 8.1 C 5.82 g/m*3 8.1 C 0 km/h
1434 14-11-2008 16:54:02 8.1 C 5.74 g/m*3 8.1 C 0 km/h
1435 14-11-2008 17:06:02 8.1 C 5.82 g/m*3 8.1 C 0 km/h
1436 14-11-2008 17:18:01 8.1 C 5.82 g/m*3 8.1 C 0 km/h
1437 14-11-2008 17:30:01 8.1 C 5.82 g/m*3 8.1 C 0 km/h
1438 14-11-2008 17:42:02 8.1 C 5.74 g/m*3 8.1 C 0 km/h
1439 14-11-2008 17:54:02 8.1 C 5.82 g/m*3 8.1 C 0 km/h
1440 14-11-2008 18:06:02 8.1 C 5.82 g/m*3 8.1 C 0 km/h
1441 14-11-2008 18:18:02 8.1 C 5.74 g/m*3 8.1 C 0 km/h
1442 14-11-2008 18:30:02 8.1 C 5.74 g/m*3 8.1 C 0 km/h
1443 14-11-2008 18:42:02 8.1 C 5.74 g/m*3 8.1 C 0 km/h
1444 14-11-2008 18:54:02 8.1 C 5.74 g/m*3 8.1 C 0 km/h
1445 14-11-2008 19:06:02 8.2 C 5.86 g/m*3 8.2 C 0 km/h
1446 14-11-2008 19:18:02 8.1 C 5.74 g/m*3 8.1 C 0 km/h
1447 14-11-2008 19:30:03 8.1 C 5.82 g/m*3 8.1 C 0 km/h
1448 14-11-2008 19:42:02 8.1 C 5.82 g/m*3 8.1 C 0 km/h
1449 14-11-2008 19:54:01 8.1 C 5.82 g/m*3 8.1 C 0 km/h
1450 14-11-2008 20:06:02 8.1 C 5.82 g/m*3 8.1 C 0 km/h
Sensor: Nr:Datum:Temp:Abs-Feuchte:Windchill:Wind:
Aussen-T/F 1451 14-11-2008 20:18:01 8.1 C 5.91 g/m*3 8.1 C 0 km/h
1452 14-11-2008 20:30:01 8 C 5.95 g/m*3 8 C 0 km/h
1453 14-11-2008 20:42:02 8 C 5.95 g/m*3 8 C 0 km/h
1454 14-11-2008 20:54:02 8 C 5.95 g/m*3 8 C 0 km/h
1455 14-11-2008 21:06:02 8 C 5.95 g/m*3 8 C 0 km/h
1456 14-11-2008 21:18:02 8 C 5.95 g/m*3 8 C 0 km/h
1457 14-11-2008 21:30:02 8 C 5.95 g/m*3 8 C 0 km/h
1458 14-11-2008 21:42:02 7.9 C 6 g/m*3 7.9 C 0 km/h
1459 14-11-2008 21:54:02 7.9 C 6 g/m*3 7.9 C 0 km/h
1460 14-11-2008 22:06:01 8 C 5.95 g/m*3 8 C 0 km/h
1461 14-11-2008 22:18:02 8 C 5.95 g/m*3 8 C 0 km/h
1462 14-11-2008 22:30:02 8 C 5.95 g/m*3 8 C 0 km/h
1463 14-11-2008 22:43:01 8 C 6.04 g/m*3 8 C 0 km/h
1464 14-11-2008 22:55:01 8 C 6.12 g/m*3 8 C 0 km/h
1465 14-11-2008 23:07:01 8.1 C 6.16 g/m*3 8.1 C 0 km/h
1466 14-11-2008 23:19:01 8.2 C 6.28 g/m*3 8.2 C 0 km/h
1467 14-11-2008 23:31:01 8.2 C 6.28 g/m*3 8.2 C 0 km/h
1468 14-11-2008 23:43:01 8.1 C 6.24 g/m*3 8.1 C 0 km/h
1469 14-11-2008 23:55:01 8.1 C 6.32 g/m*3 8.1 C 0 km/h
1470 15-11-2008 00:07:01 8.1 C 6.32 g/m*3 8.1 C 0 km/h
1471 15-11-2008 00:19:01 8.1 C 6.32 g/m*3 8.1 C 0 km/h
1472 15-11-2008 00:31:01 8.1 C 6.41 g/m*3 8.1 C 0 km/h
1473 15-11-2008 00:43:02 8.1 C 6.41 g/m*3 8.1 C 0 km/h
1474 15-11-2008 00:55:02 8.1 C 6.49 g/m*3 8.1 C 0 km/h
1475 15-11-2008 01:07:02 8.1 C 6.49 g/m*3 8.1 C 0 km/h
Sensor: Nr:Datum:Temp:Abs-Feuchte:Windchill:Wind:
Aussen-T/F 1476 15-11-2008 01:19:02 8 C 6.45 g/m*3 8 C 0 km/h
1477 15-11-2008 01:31:02 8 C 6.53 g/m*3 8 C 0 km/h
1478 15-11-2008 01:43:02 8.1 C 6.57 g/m*3 8.1 C 0 km/h
1479 15-11-2008 01:55:02 8.1 C 6.57 g/m*3 8.1 C 0 km/h
1480 15-11-2008 02:07:02 8.2 C 6.62 g/m*3 8.2 C 0 km/h
1481 15-11-2008 02:19:02 8.2 C 6.62 g/m*3 8.2 C 0 km/h
1482 15-11-2008 02:31:02 8.2 C 6.62 g/m*3 8.2 C 0 km/h
1483 15-11-2008 02:43:02 8.2 C 6.62 g/m*3 8.2 C 0 km/h
1484 15-11-2008 02:55:02 8.2 C 6.62 g/m*3 8.2 C 0 km/h
1485 15-11-2008 03:07:02 8.2 C 6.62 g/m*3 8.2 C 0 km/h
1486 15-11-2008 03:19:02 8.2 C 6.62 g/m*3 8.2 C 0 km/h
1487 15-11-2008 03:31:02 8.2 C 6.62 g/m*3 8.2 C 0 km/h
1488 15-11-2008 03:43:02 8.2 C 6.7 g/m*3 8.2 C 0 km/h
1489 15-11-2008 03:55:02 8.2 C 6.7 g/m*3 8.2 C 0 km/h
1490 15-11-2008 04:07:02 8.2 C 6.7 g/m*3 8.2 C 0 km/h
1491 15-11-2008 04:19:02 8.2 C 6.7 g/m*3 8.2 C 0 km/h
1492 15-11-2008 04:31:03 8.3 C 6.83 g/m*3 8.3 C 0 km/h
1493 15-11-2008 04:43:03 8.4 C 6.87 g/m*3 8.4 C 0 km/h
1494 15-11-2008 04:55:03 8.5 C 6.92 g/m*3 8.5 C 0 km/h
1495 15-11-2008 05:07:03 8.5 C 6.92 g/m*3 8.5 C 0 km/h
1496 15-11-2008 05:19:03 8.6 C 6.96 g/m*3 8.6 C 0 km/h
1497 15-11-2008 05:31:03 8.7 C 7.01 g/m*3 8.7 C 0 km/h
1498 15-11-2008 05:43:03 8.8 C 6.96 g/m*3 8.8 C 0 km/h
1499 15-11-2008 05:55:03 8.8 C 6.96 g/m*3 8.8 C 0 km/h
1500 15-11-2008 06:07:03 8.8 C 6.96 g/m*3 8.8 C 0 km/h
Sensor: Nr:Datum:Temp:Abs-Feuchte:Windchill:Wind:
Aussen-T/F 1501 15-11-2008 06:19:03 8.8 C 6.96 g/m*3 8.8 C 0 km/h
1502 15-11-2008 06:31:03 8.8 C 6.96 g/m*3 8.8 C 0 km/h
1503 15-11-2008 06:43:03 8.9 C 7.01 g/m*3 8.9 C 0 km/h
1504 15-11-2008 06:55:03 8.9 C 7.01 g/m*3 8.9 C 0 km/h
1505 15-11-2008 07:07:03 9 C 6.96 g/m*3 9 C 0 km/h
1506 15-11-2008 07:19:03 9 C 6.96 g/m*3 9 C 0 km/h
1507 15-11-2008 07:31:03 9 C 6.96 g/m*3 9 C 0 km/h
1508 15-11-2008 07:43:03 9 C 7.05 g/m*3 9 C 0 km/h
1509 15-11-2008 07:55:03 9.4 C 7.15 g/m*3 9.4 C 0 km/h
1510 15-11-2008 08:07:03 9.1 C 7.01 g/m*3 9.1 C 0 km/h
1511 15-11-2008 08:19:01 9.3 C 7.1 g/m*3 9.3 C 0 km/h
1512 15-11-2008 08:31:01 9.3 C 7.1 g/m*3 9.3 C 0 km/h
1513 15-11-2008 08:43:01 9.3 C 7.01 g/m*3 9.3 C 0 km/h
1514 15-11-2008 08:55:02 9.3 C 7.01 g/m*3 9.3 C 0 km/h
1515 15-11-2008 09:07:02 9.4 C 7.05 g/m*3 9.4 C 0 km/h
1516 15-11-2008 09:19:03 9.5 C 7.1 g/m*3 9.5 C 0 km/h
1517 15-11-2008 09:31:02 9.5 C 7.01 g/m*3 9.5 C 0 km/h
1518 15-11-2008 09:43:02 9.6 C 7.05 g/m*3 9.6 C 0 km/h
1519 15-11-2008 09:55:02 9.6 C 7.05 g/m*3 9.6 C 0 km/h
1520 15-11-2008 10:07:02 9.6 C 7.05 g/m*3 9.6 C 0 km/h
1521 15-11-2008 10:19:02 9.7 C 7.01 g/m*3 9.7 C 0 km/h
1522 15-11-2008 10:31:02 9.7 C 7.01 g/m*3 9.7 C 0 km/h
1523 15-11-2008 10:43:03 9.8 C 7.05 g/m*3 9.8 C 0 km/h
1524 15-11-2008 10:55:01 9.8 C 7.05 g/m*3 9.8 C 0 km/h
1525 15-11-2008 11:07:02 9.8 C 7.05 g/m*3 9.8 C 0 km/h
Sensor: Nr:Datum:Temp:Abs-Feuchte:Windchill:Wind:
Aussen-T/F 1526 15-11-2008 11:19:01 9.9 C 7.1 g/m*3 9.9 C 0 km/h
1527 15-11-2008 11:31:02 10.1 C 7.09 g/m*3 10.1 C 0 km/h
1528 15-11-2008 11:43:02 10.2 C 7.04 g/m*3 10.2 C 0 km/h
1529 15-11-2008 11:55:02 10.4 C 7.13 g/m*3 10.4 C 0 km/h
1530 15-11-2008 12:07:02 10.4 C 7.04 g/m*3 10.4 C 0 km/h
1531 15-11-2008 12:19:02 10.6 C 7.03 g/m*3 10.6 C 0 km/h
1532 15-11-2008 12:31:02 10.6 C 7.03 g/m*3 10.6 C 0 km/h
1533 15-11-2008 12:43:02 10.7 C 7.07 g/m*3 10.7 C 0 km/h
1534 15-11-2008 12:55:02 10.8 C 7.02 g/m*3 10.8 C 0 km/h
1535 15-11-2008 13:07:01 11 C 6.91 g/m*3 11 C 0 km/h
1536 15-11-2008 13:19:02 11 C 6.81 g/m*3 11 C 0 km/h
1537 15-11-2008 13:31:02 11.1 C 6.85 g/m*3 11.1 C 0 km/h
1538 15-11-2008 13:43:02 11.2 C 6.79 g/m*3 11.2 C 0 km/h
1539 15-11-2008 13:55:02 11.3 C 6.83 g/m*3 11.3 C 0 km/h
1540 15-11-2008 14:07:02 11.3 C 6.83 g/m*3 11.3 C 0 km/h
1541 15-11-2008 14:19:02 11.3 C 6.83 g/m*3 11.3 C 0 km/h
1542 15-11-2008 14:31:02 11.4 C 6.88 g/m*3 11.4 C 0 km/h
1543 15-11-2008 14:43:02 11.4 C 6.88 g/m*3 11.4 C 0 km/h
1544 15-11-2008 14:55:02 11.4 C 6.88 g/m*3 11.4 C 0 km/h
1545 15-11-2008 15:07:02 11.3 C 6.94 g/m*3 11.3 C 0 km/h
1546 15-11-2008 15:19:02 11.3 C 6.94 g/m*3 11.3 C 0 km/h
1547 15-11-2008 15:31:02 11.3 C 6.94 g/m*3 11.3 C 0 km/h
1548 15-11-2008 15:43:02 11.2 C 6.99 g/m*3 11.2 C 0 km/h
1549 15-11-2008 15:55:02 11.2 C 6.99 g/m*3 11.2 C 0 km/h
1550 15-11-2008 16:07:02 11.1 C 7.05 g/m*3 11.1 C 0 km/h
Sensor: Nr:Datum:Temp:Abs-Feuchte:Windchill:Wind:
Aussen-T/F 1551 15-11-2008 16:19:02 11 C 7.01 g/m*3 11 C 0 km/h
1552 15-11-2008 16:31:02 11 C 7.11 g/m*3 11 C 0 km/h
1553 15-11-2008 16:43:02 11 C 7.11 g/m*3 11 C 0 km/h
1554 15-11-2008 16:55:01 11 C 7.11 g/m*3 11 C 0 km/h
1555 15-11-2008 17:07:02 10.9 C 7.16 g/m*3 10.9 C 0 km/h
1556 15-11-2008 17:19:02 10.9 C 7.26 g/m*3 10.9 C 0 km/h
1557 15-11-2008 17:31:02 10.9 C 7.26 g/m*3 10.9 C 0 km/h
1558 15-11-2008 17:43:02 10.8 C 7.22 g/m*3 10.8 C 0 km/h
1559 15-11-2008 17:55:02 10.8 C 7.31 g/m*3 10.8 C 0 km/h
1560 15-11-2008 18:07:03 10.8 C 7.31 g/m*3 10.8 C 0 km/h
1561 15-11-2008 18:19:02 10.7 C 7.27 g/m*3 10.7 C 0 km/h
1562 15-11-2008 18:31:03 10.8 C 7.31 g/m*3 10.8 C 0 km/h
1563 15-11-2008 18:43:03 10.7 C 7.27 g/m*3 10.7 C 0 km/h
1564 15-11-2008 18:55:02 10.7 C 7.27 g/m*3 10.7 C 0 km/h
1565 15-11-2008 19:07:02 10.7 C 7.27 g/m*3 10.7 C 0 km/h
1566 15-11-2008 19:19:02 10.7 C 7.27 g/m*3 10.7 C 0 km/h
1567 15-11-2008 19:31:02 10.7 C 7.27 g/m*3 10.7 C 0 km/h
1568 15-11-2008 19:43:02 10.7 C 7.27 g/m*3 10.7 C 0 km/h
1569 15-11-2008 19:55:01 10.7 C 7.37 g/m*3 10.7 C 0 km/h
1570 15-11-2008 20:07:02 10.7 C 7.37 g/m*3 10.7 C 0 km/h
1571 15-11-2008 20:19:01 10.6 C 7.32 g/m*3 10.6 C 0 km/h
1572 15-11-2008 20:31:01 10.6 C 7.32 g/m*3 10.6 C 0 km/h
1573 15-11-2008 20:43:01 10.6 C 7.42 g/m*3 10.6 C 0 km/h
1574 15-11-2008 20:55:02 10.6 C 7.42 g/m*3 10.6 C 0 km/h
1575 15-11-2008 21:07:02 10.5 C 7.47 g/m*3 10.5 C 0 km/h
Sensor: Nr:Datum:Temp:Abs-Feuchte:Windchill:Wind:
Aussen-T/F 1576 15-11-2008 21:19:02 10.5 C 7.47 g/m*3 10.5 C 0 km/h
1577 15-11-2008 21:31:02 10.5 C 7.47 g/m*3 10.5 C 0 km/h
1578 15-11-2008 21:43:02 10.5 C 7.57 g/m*3 10.5 C 0 km/h
1579 15-11-2008 21:55:02 10.5 C 7.57 g/m*3 10.5 C 0 km/h
1580 15-11-2008 22:07:01 10.5 C 7.57 g/m*3 10.5 C 0 km/h
1581 15-11-2008 22:19:02 10.5 C 7.57 g/m*3 10.5 C 0 km/h
1582 15-11-2008 22:31:01 10.5 C 7.57 g/m*3 10.5 C 0 km/h
1583 15-11-2008 22:43:01 10.4 C 7.52 g/m*3 10.4 C 0 km/h
1584 15-11-2008 22:55:02 10.4 C 7.61 g/m*3 10.4 C 0 km/h
1585 15-11-2008 23:07:01 10.4 C 7.61 g/m*3 10.4 C 0 km/h
1586 15-11-2008 23:20:02 10.4 C 7.61 g/m*3 10.4 C 0 km/h
1587 15-11-2008 23:32:02 10.4 C 7.61 g/m*3 10.4 C 0 km/h
1588 15-11-2008 23:44:02 10.4 C 7.61 g/m*3 10.4 C 0 km/h
1589 15-11-2008 23:56:03 10.3 C 7.66 g/m*3 10.3 C 0 km/h
1590 16-11-2008 00:08:03 10.2 C 7.71 g/m*3 10.2 C 0 km/h
1591 16-11-2008 00:20:03 10.1 C 7.85 g/m*3 10.1 C 0 km/h
1592 16-11-2008 00:32:03 10 C 7.8 g/m*3 10 C 0 km/h
1593 16-11-2008 00:44:03 10.1 C 7.94 g/m*3 10.1 C 0 km/h
1594 16-11-2008 00:56:03 10 C 7.89 g/m*3 10 C 0 km/h
1595 16-11-2008 01:08:03 10.1 C 7.94 g/m*3 10.1 C 0 km/h
1596 16-11-2008 01:20:03 10.1 C 7.94 g/m*3 10.1 C 0 km/h
1597 16-11-2008 01:32:03 10.1 C 7.94 g/m*3 10.1 C 0 km/h
1598 16-11-2008 01:44:03 10.1 C 7.94 g/m*3 10.1 C 0 km/h
1599 16-11-2008 01:56:03 10 C 7.99 g/m*3 10 C 0 km/h
1600 16-11-2008 02:08:03 9.9 C 8.12 g/m*3 9.9 C 0 km/h
Sensor: Nr:Datum:Temp:Abs-Feuchte:Windchill:Wind:
Aussen-T/F 1601 16-11-2008 02:20:03 10 C 8.08 g/m*3 10 C 0 km/h
1602 16-11-2008 02:32:03 10.1 C 8.13 g/m*3 10.1 C 0 km/h
1603 16-11-2008 02:44:03 10.2 C 8.18 g/m*3 10.2 C 0 km/h
1604 16-11-2008 02:56:03 10.3 C 8.14 g/m*3 10.3 C 0 km/h
1605 16-11-2008 03:08:03 10.3 C 8.04 g/m*3 10.3 C 0 km/h
1606 16-11-2008 03:20:03 10.4 C 8 g/m*3 10.4 C 0 km/h
1607 16-11-2008 03:32:03 10.4 C 8 g/m*3 10.4 C 0 km/h
1608 16-11-2008 03:44:04 10.4 C 7.9 g/m*3 10.4 C 0 km/h
1609 16-11-2008 03:56:04 10.4 C 7.9 g/m*3 10.4 C 0 km/h
1610 16-11-2008 04:08:04 10.4 C 7.9 g/m*3 10.4 C 0 km/h
1611 16-11-2008 04:20:04 10.5 C 7.95 g/m*3 10.5 C 0 km/h
1612 16-11-2008 04:32:04 10.4 C 7.9 g/m*3 10.4 C 0 km/h
1613 16-11-2008 04:44:04 10.5 C 7.95 g/m*3 10.5 C 0 km/h
1614 16-11-2008 04:56:04 10.6 C 7.91 g/m*3 10.6 C 0 km/h
1615 16-11-2008 05:08:04 10.7 C 7.86 g/m*3 10.7 C 0 km/h
1616 16-11-2008 05:20:04 10.7 C 7.86 g/m*3 10.7 C 0 km/h
1617 16-11-2008 05:32:04 10.7 C 7.86 g/m*3 10.7 C 0 km/h
1618 16-11-2008 05:44:04 10.8 C 7.91 g/m*3 10.8 C 0 km/h
1619 16-11-2008 05:56:04 10.8 C 7.81 g/m*3 10.8 C 0 km/h
1620 16-11-2008 06:08:04 10.7 C 7.86 g/m*3 10.7 C 0 km/h
1621 16-11-2008 06:20:04 10.5 C 7.86 g/m*3 10.5 C 0 km/h
1622 16-11-2008 06:32:04 10.2 C 7.99 g/m*3 10.2 C 0 km/h
1623 16-11-2008 06:44:04 10.3 C 8.14 g/m*3 10.3 C 0 km/h
1624 16-11-2008 06:56:04 10.4 C 8.1 g/m*3 10.4 C 0 km/h
1625 16-11-2008 07:08:04 10.5 C 8.15 g/m*3 10.5 C 0 km/h
Sensor: Nr:Datum:Temp:Abs-Feuchte:Windchill:Wind:
Aussen-T/F 1626 16-11-2008 07:20:04 10.6 C 8.1 g/m*3 10.6 C 0 km/h
1627 16-11-2008 07:32:04 10.7 C 8.05 g/m*3 10.7 C 0 km/h
1628 16-11-2008 07:44:05 10.7 C 8.05 g/m*3 10.7 C 0 km/h
1629 16-11-2008 07:56:05 10.8 C 8.11 g/m*3 10.8 C 0 km/h
1630 16-11-2008 08:08:05 10.9 C 8.06 g/m*3 10.9 C 0 km/h
1631 16-11-2008 08:20:01 11 C 8.01 g/m*3 11 C 0 km/h
1632 16-11-2008 08:32:01 11.1 C 8.06 g/m*3 11.1 C 0 km/h
1633 16-11-2008 08:44:01 11.2 C 8.01 g/m*3 11.2 C 0 km/h
1634 16-11-2008 08:56:01 11.2 C 8.01 g/m*3 11.2 C 0 km/h
1635 16-11-2008 09:08:01 11.2 C 8.01 g/m*3 11.2 C 0 km/h
1636 16-11-2008 09:20:01 11.4 C 8.01 g/m*3 11.4 C 0 km/h
1637 16-11-2008 09:32:01 11.7 C 8.16 g/m*3 11.7 C 0 km/h
1638 16-11-2008 09:44:01 11.6 C 8.11 g/m*3 11.6 C 0 km/h
1639 16-11-2008 09:56:02 11.6 C 8.21 g/m*3 11.6 C 0 km/h
1640 16-11-2008 10:08:02 11.4 C 8.21 g/m*3 11.4 C 0 km/h
1641 16-11-2008 10:20:02 11.2 C 8.21 g/m*3 11.2 C 0 km/h
1642 16-11-2008 10:32:02 10.9 C 8.45 g/m*3 10.9 C 0 km/h
1643 16-11-2008 10:44:02 10.7 C 8.64 g/m*3 10.7 C 0 km/h
1644 16-11-2008 10:56:03 10.7 C 8.74 g/m*3 10.7 C 0 km/h
1645 16-11-2008 11:08:03 10.8 C 8.9 g/m*3 10.8 C 0 km/h
1646 16-11-2008 11:20:02 10.9 C 8.95 g/m*3 10.9 C 0 km/h
1647 16-11-2008 11:32:02 11.1 C 9.07 g/m*3 11.1 C 0 km/h
1648 16-11-2008 11:44:02 11.6 C 9.46 g/m*3 11.6 C 0 km/h
1649 16-11-2008 11:56:02 12.2 C 9.71 g/m*3 12.2 C 0 km/h
1650 16-11-2008 12:08:02 12.4 C 9.62 g/m*3 12.4 C 0 km/h
Sensor: Nr:Datum:Temp:Abs-Feuchte:Windchill:Wind:
Aussen-T/F 1651 16-11-2008 12:20:02 12.5 C 9.46 g/m*3 12.5 C 0 km/h
1652 16-11-2008 12:32:02 12.7 C 9.35 g/m*3 12.7 C 0 km/h
1653 16-11-2008 12:44:02 12.7 C 9.35 g/m*3 12.7 C 0 km/h
1654 16-11-2008 12:56:01 12.7 C 9.24 g/m*3 12.7 C 0 km/h
1655 16-11-2008 13:08:02 12.7 C 9.13 g/m*3 12.7 C 0 km/h
1656 16-11-2008 13:20:01 12.7 C 9.02 g/m*3 12.7 C 0 km/h
1657 16-11-2008 13:32:02 12.4 C 8.85 g/m*3 12.4 C 0 km/h
1658 16-11-2008 13:44:02 12.3 C 8.8 g/m*3 12.3 C 0 km/h
1659 16-11-2008 13:56:01 12.1 C 8.79 g/m*3 12.1 C 0 km/h
1660 16-11-2008 14:08:02 11.5 C 8.88 g/m*3 11.5 C 0 km/h
1661 16-11-2008 14:20:01 10.9 C 8.65 g/m*3 10.9 C 0 km/h
1662 16-11-2008 14:32:01 10.7 C 8.64 g/m*3 10.7 C 0 km/h
1663 16-11-2008 14:44:01 10.4 C 8.58 g/m*3 10.4 C 0 km/h
1664 16-11-2008 14:56:01 10.4 C 8.58 g/m*3 10.4 C 0 km/h
1665 16-11-2008 15:08:02 10.3 C 8.62 g/m*3 10.3 C 0 km/h
1666 16-11-2008 15:20:01 10.1 C 8.51 g/m*3 10.1 C 0 km/h
1667 16-11-2008 15:32:02 10.1 C 8.61 g/m*3 10.1 C 0 km/h
1668 16-11-2008 15:44:02 10 C 8.55 g/m*3 10 C 0 km/h
1669 16-11-2008 15:56:02 9.9 C 8.68 g/m*3 9.9 C 0 km/h
1670 16-11-2008 16:08:02 9.7 C 8.57 g/m*3 9.7 C 0 km/h
1671 16-11-2008 16:20:02 9.6 C 8.43 g/m*3 9.6 C 0 km/h
1672 16-11-2008 16:32:02 9.6 C 8.52 g/m*3 9.6 C 0 km/h
1673 16-11-2008 16:44:02 9.5 C 8.37 g/m*3 9.5 C 0 km/h
1674 16-11-2008 16:56:02 9.4 C 8.32 g/m*3 9.4 C 0 km/h
1675 16-11-2008 17:08:02 9.1 C 7.99 g/m*3 9.1 C 0 km/h
Sensor: Nr:Datum:Temp:Abs-Feuchte:Windchill:Wind:
Aussen-T/F 1676 16-11-2008 17:20:02 9.2 C 8.04 g/m*3 9.2 C 0 km/h
1677 16-11-2008 17:32:02 9.2 C 7.95 g/m*3 9.2 C 0 km/h
1678 16-11-2008 17:44:02 9.3 C 7.91 g/m*3 9.3 C 0 km/h
1679 16-11-2008 17:56:02 9.1 C 7.72 g/m*3 9.1 C 0 km/h
1680 16-11-2008 18:08:02 8.9 C 7.62 g/m*3 8.9 C 0 km/h
1681 16-11-2008 18:20:02 8.8 C 7.66 g/m*3 8.8 C 0 km/h
1682 16-11-2008 18:32:02 8.9 C 7.71 g/m*3 8.9 C 0 km/h
1683 16-11-2008 18:44:02 8.9 C 7.71 g/m*3 8.9 C 0 km/h
1684 16-11-2008 18:56:02 8.8 C 7.66 g/m*3 8.8 C 0 km/h
1685 16-11-2008 19:08:03 8.5 C 7.43 g/m*3 8.5 C 0 km/h
1686 16-11-2008 19:20:02 8.3 C 7.25 g/m*3 8.3 C 0 km/h
1687 16-11-2008 19:32:02 8.2 C 7.29 g/m*3 8.2 C 0 km/h
1688 16-11-2008 19:44:02 8.3 C 7.42 g/m*3 8.3 C 0 km/h
1689 16-11-2008 19:56:02 8.6 C 7.39 g/m*3 8.6 C 0 km/h
1690 16-11-2008 20:08:01 8.8 C 7.22 g/m*3 8.8 C 0 km/h
1691 16-11-2008 20:20:02 8.9 C 7.01 g/m*3 8.9 C 0 km/h
1692 16-11-2008 20:32:02 8.7 C 6.92 g/m*3 8.7 C 0 km/h
1693 16-11-2008 20:44:02 8.7 C 6.83 g/m*3 8.7 C 0 km/h
1694 16-11-2008 20:56:02 8.8 C 6.88 g/m*3 8.8 C 0 km/h
1695 16-11-2008 21:08:02 8.8 C 6.79 g/m*3 8.8 C 0 km/h
1696 16-11-2008 21:20:02 8.1 C 5.91 g/m*3 8.1 C 0 km/h
1697 16-11-2008 21:32:02 7.6 C 5.8 g/m*3 7.6 C 0 km/h
1698 16-11-2008 21:44:03 7.3 C 5.77 g/m*3 7.3 C 0 km/h
1699 16-11-2008 21:56:02 7 C 5.81 g/m*3 7 C 0 km/h
1700 16-11-2008 22:08:01 6.8 C 5.81 g/m*3 6.8 C 0 km/h
Sensor: Nr:Datum:Temp:Abs-Feuchte:Windchill:Wind:
Aussen-T/F 1701 16-11-2008 22:20:01 6.7 C 5.77 g/m*3 6.7 C 0 km/h
1702 16-11-2008 22:32:01 6.5 C 5.7 g/m*3 6.5 C 0 km/h
1703 16-11-2008 22:44:01 6.3 C 5.7 g/m*3 6.3 C 0 km/h
1704 16-11-2008 22:56:01 6.1 C 5.63 g/m*3 6.1 C 0 km/h
1705 16-11-2008 23:08:01 5.8 C 5.73 g/m*3 5.8 C 0 km/h
1706 16-11-2008 23:20:01 5.8 C 5.73 g/m*3 5.8 C 0 km/h
1707 16-11-2008 23:32:01 5.9 C 5.7 g/m*3 5.9 C 0 km/h
1708 16-11-2008 23:44:01 5.8 C 5.66 g/m*3 5.8 C 0 km/h
1709 16-11-2008 23:56:01 5.6 C 5.59 g/m*3 5.6 C 0 km/h

Legende:
   Min
   Max


Maximal/Minimal-Werte vom 17.04.2019 - 19.05.2019

Sensor Min Max Avg
Temp
(Aussen-T/F)
2.2 °C
13-05-2019  06:50:00
26.6 °C
24-04-2019  17:05:00
11.51 °C

Die Daten stammen von einer Davis Vantage Pro 2 Wetter-Station und werden unter Linux mit der Software wview2wettercgi und aufbereitet. Alle Angaben erfolgen ohne Gewähr für ihre Vollständigkeit oder Richtigkeit.
Kontakt: Rainer Krienke krienke@uni-koblenz.de . Meine Webseiten an der Uni Koblenz oder privat.
Version: $Revision: 0.78 $